<?xml version="1.0" encoding="UTF-8" standalone="no" ?><gpx xmlns="http://www.topografix.com/GPX/1/1" xmlns:gpxx="http://www.garmin.com/xmlschemas/GpxExtensions/v3" xmlns:wptx1="http://www.garmin.com/xmlschemas/WaypointExtension/v1" xmlns:gpxtpx="http://www.garmin.com/xmlschemas/TrackPointExtension/v1" creator="Dakota 20" version="1.1" xmlns:xsi="http://www.w3.org/2001/XMLSchema-instance" xsi:schemaLocation="http://www.topografix.com/GPX/1/1 http://www.topografix.com/GPX/1/1/gpx.xsd http://www.garmin.com/xmlschemas/GpxExtensions/v3 http://www8.garmin.com/xmlschemas/GpxExtensionsv3.xsd http://www.garmin.com/xmlschemas/WaypointExtension/v1 http://www8.garmin.com/xmlschemas/WaypointExtensionv1.xsd http://www.garmin.com/xmlschemas/TrackPointExtension/v1 http://www.garmin.com/xmlschemas/TrackPointExtensionv1.xsd"><metadata><link href="http://www.garmin.com"><text>Garmin International</text></link><time>2014-01-22T21:00:39Z</time></metadata><trk><name>Current Track: 22 JAN 2014 09:58</name><extensions><gpxx:TrackExtension><gpxx:DisplayColor>Cyan</gpxx:DisplayColor></gpxx:TrackExtension></extensions><trkseg><trkpt lat="51.7857893184" lon="-2.1954865661"><ele>150.58</ele><time>2014-01-22T09:58:00Z</time></trkpt><trkpt lat="51.7857836187" lon="-2.1955699660"><ele>150.58</ele><time>2014-01-22T09:58:21Z</time></trkpt><trkpt lat="51.7857241072" lon="-2.1957204212"><ele>150.10</ele><time>2014-01-22T09:58:42Z</time></trkpt><trkpt lat="51.7858023942" lon="-2.1957781725"><ele>150.10</ele><time>2014-01-22T09:59:03Z</time></trkpt><trkpt lat="51.7858489975" lon="-2.1957953554"><ele>150.10</ele><time>2014-01-22T09:59:25Z</time></trkpt><trkpt lat="51.7858210020" lon="-2.1957712155"><ele>150.58</ele><time>2014-01-22T09:59:51Z</time></trkpt><trkpt lat="51.7858315632" lon="-2.1957650129"><ele>150.10</ele><time>2014-01-22T10:00:15Z</time></trkpt><trkpt lat="51.7858324014" lon="-2.1957478300"><ele>149.62</ele><time>2014-01-22T10:00:36Z</time></trkpt><trkpt lat="51.7858200800" lon="-2.1956721414"><ele>150.10</ele><time>2014-01-22T10:01:00Z</time></trkpt><trkpt lat="51.7856397852" lon="-2.1955532860"><ele>148.66</ele><time>2014-01-22T10:01:19Z</time></trkpt><trkpt lat="51.7854998074" lon="-2.1957010590"><ele>147.70</ele><time>2014-01-22T10:01:38Z</time></trkpt><trkpt lat="51.7854689620" lon="-2.1957649291"><ele>147.70</ele><time>2014-01-22T10:01:45Z</time></trkpt><trkpt lat="51.7852983065" lon="-2.1959370933"><ele>146.74</ele><time>2014-01-22T10:02:07Z</time></trkpt><trkpt lat="51.7853022460" lon="-2.1961219981"><ele>145.30</ele><time>2014-01-22T10:02:27Z</time></trkpt><trkpt lat="51.7852791958" lon="-2.1961857844"><ele>143.85</ele><time>2014-01-22T10:02:42Z</time></trkpt><trkpt lat="51.7849642038" lon="-2.1963247564"><ele>142.89</ele><time>2014-01-22T10:02:50Z</time></trkpt><trkpt lat="51.7846623715" lon="-2.1964447014"><ele>140.97</ele><time>2014-01-22T10:03:13Z</time></trkpt><trkpt lat="51.7844416760" lon="-2.1966021974"><ele>138.57</ele><time>2014-01-22T10:03:38Z</time></trkpt><trkpt lat="51.7842115089" lon="-2.1966723539"><ele>136.16</ele><time>2014-01-22T10:03:59Z</time></trkpt><trkpt lat="51.7838935833" lon="-2.1967705898"><ele>134.24</ele><time>2014-01-22T10:04:22Z</time></trkpt><trkpt lat="51.7838282883" lon="-2.1965933964"><ele>133.28</ele><time>2014-01-22T10:04:37Z</time></trkpt><trkpt lat="51.7836225964" lon="-2.1962851938"><ele>130.40</ele><time>2014-01-22T10:04:59Z</time></trkpt><trkpt lat="51.7835177388" lon="-2.1961084194"><ele>129.43</ele><time>2014-01-22T10:05:17Z</time></trkpt><trkpt lat="51.7834881507" lon="-2.1960947569"><ele>128.47</ele><time>2014-01-22T10:05:20Z</time></trkpt><trkpt lat="51.7833126336" lon="-2.1961619798"><ele>125.11</ele><time>2014-01-22T10:05:34Z</time></trkpt><trkpt lat="51.7831731588" lon="-2.1961898915"><ele>122.71</ele><time>2014-01-22T10:05:53Z</time></trkpt><trkpt lat="51.7829902656" lon="-2.1962312981"><ele>120.30</ele><time>2014-01-22T10:06:12Z</time></trkpt><trkpt lat="51.7829770222" lon="-2.1962311305"><ele>120.30</ele><time>2014-01-22T10:06:14Z</time></trkpt><trkpt lat="51.7828539759" lon="-2.1962250955"><ele>117.42</ele><time>2014-01-22T10:06:25Z</time></trkpt><trkpt lat="51.7827041913" lon="-2.1963325515"><ele>115.01</ele><time>2014-01-22T10:06:42Z</time></trkpt><trkpt lat="51.7825365532" lon="-2.1965252515"><ele>112.61</ele><time>2014-01-22T10:07:05Z</time></trkpt><trkpt lat="51.7823855951" lon="-2.1966265049"><ele>110.21</ele><time>2014-01-22T10:07:23Z</time></trkpt><trkpt lat="51.7822193820" lon="-2.1966893692"><ele>106.84</ele><time>2014-01-22T10:07:39Z</time></trkpt><trkpt lat="51.7820818350" lon="-2.1966544166"><ele>106.36</ele><time>2014-01-22T10:07:54Z</time></trkpt><trkpt lat="51.7818577029" lon="-2.1966681629"><ele>103.00</ele><time>2014-01-22T10:08:14Z</time></trkpt><trkpt lat="51.7816791683" lon="-2.1968236472"><ele>101.08</ele><time>2014-01-22T10:08:35Z</time></trkpt><trkpt lat="51.7815132905" lon="-2.1970652975"><ele>99.15</ele><time>2014-01-22T10:08:56Z</time></trkpt><trkpt lat="51.7813552078" lon="-2.1972988173"><ele>96.75</ele><time>2014-01-22T10:09:19Z</time></trkpt><trkpt lat="51.7811433133" lon="-2.1975143161"><ele>93.87</ele><time>2014-01-22T10:09:43Z</time></trkpt><trkpt lat="51.7809908465" lon="-2.1976363566"><ele>91.94</ele><time>2014-01-22T10:10:04Z</time></trkpt><trkpt lat="51.7809407227" lon="-2.1976656932"><ele>90.50</ele><time>2014-01-22T10:10:16Z</time></trkpt><trkpt lat="51.7808014993" lon="-2.1978201717"><ele>86.66</ele><time>2014-01-22T10:10:31Z</time></trkpt><trkpt lat="51.7806352023" lon="-2.1980116982"><ele>83.29</ele><time>2014-01-22T10:10:55Z</time></trkpt><trkpt lat="51.7804564163" lon="-2.1981303021"><ele>81.85</ele><time>2014-01-22T10:11:16Z</time></trkpt><trkpt lat="51.7802942265" lon="-2.1981861256"><ele>79.45</ele><time>2014-01-22T10:11:35Z</time></trkpt><trkpt lat="51.7802407499" lon="-2.1982327290"><ele>79.93</ele><time>2014-01-22T10:12:00Z</time></trkpt><trkpt lat="51.7802342959" lon="-2.1982489061"><ele>78.97</ele><time>2014-01-22T10:12:12Z</time></trkpt><trkpt lat="51.7801366467" lon="-2.1982786618"><ele>78.97</ele><time>2014-01-22T10:12:29Z</time></trkpt><trkpt lat="51.7799650691" lon="-2.1982670948"><ele>78.97</ele><time>2014-01-22T10:12:51Z</time></trkpt><trkpt lat="51.7798687611" lon="-2.1983237565"><ele>78.97</ele><time>2014-01-22T10:13:10Z</time></trkpt><trkpt lat="51.7797038052" lon="-2.1984415222"><ele>81.37</ele><time>2014-01-22T10:13:27Z</time></trkpt><trkpt lat="51.7794987001" lon="-2.1984451264"><ele>84.25</ele><time>2014-01-22T10:13:44Z</time></trkpt><trkpt lat="51.7794332374" lon="-2.1984371636"><ele>85.21</ele><time>2014-01-22T10:13:50Z</time></trkpt><trkpt lat="51.7792735621" lon="-2.1983432025"><ele>88.10</ele><time>2014-01-22T10:14:04Z</time></trkpt><trkpt lat="51.7790915910" lon="-2.1983085852"><ele>91.94</ele><time>2014-01-22T10:14:22Z</time></trkpt><trkpt lat="51.7789120506" lon="-2.1981999557"><ele>93.39</ele><time>2014-01-22T10:14:41Z</time></trkpt><trkpt lat="51.7788009904" lon="-2.1981794201"><ele>97.23</ele><time>2014-01-22T10:14:52Z</time></trkpt><trkpt lat="51.7787904292" lon="-2.1981777437"><ele>93.87</ele><time>2014-01-22T10:14:53Z</time></trkpt><trkpt lat="51.7787781078" lon="-2.1981773246"><ele>97.71</ele><time>2014-01-22T10:14:54Z</time></trkpt><trkpt lat="51.7786247190" lon="-2.1981552802"><ele>100.60</ele><time>2014-01-22T10:15:13Z</time></trkpt><trkpt lat="51.7785258964" lon="-2.1981961001"><ele>101.56</ele><time>2014-01-22T10:15:26Z</time></trkpt><trkpt lat="51.7784240562" lon="-2.1982384287"><ele>104.92</ele><time>2014-01-22T10:15:40Z</time></trkpt><trkpt lat="51.7782905325" lon="-2.1983006224"><ele>109.25</ele><time>2014-01-22T10:15:58Z</time></trkpt><trkpt lat="51.7782812286" lon="-2.1983076632"><ele>104.92</ele><time>2014-01-22T10:15:59Z</time></trkpt><trkpt lat="51.7782700807" lon="-2.1983167157"><ele>108.77</ele><time>2014-01-22T10:16:00Z</time></trkpt><trkpt lat="51.7781478725" lon="-2.1983529255"><ele>110.69</ele><time>2014-01-22T10:16:11Z</time></trkpt><trkpt lat="51.7779882811" lon="-2.1982674301"><ele>114.05</ele><time>2014-01-22T10:16:27Z</time></trkpt><trkpt lat="51.7777776439" lon="-2.1982851159"><ele>112.61</ele><time>2014-01-22T10:16:51Z</time></trkpt><trkpt lat="51.7777512409" lon="-2.1982561145"><ele>113.57</ele><time>2014-01-22T10:16:59Z</time></trkpt><trkpt lat="51.7777008656" lon="-2.1981399413"><ele>114.05</ele><time>2014-01-22T10:17:04Z</time></trkpt><trkpt lat="51.7775283661" lon="-2.1980305575"><ele>115.98</ele><time>2014-01-22T10:17:18Z</time></trkpt><trkpt lat="51.7773790844" lon="-2.1979603171"><ele>119.82</ele><time>2014-01-22T10:17:32Z</time></trkpt><trkpt lat="51.7772630788" lon="-2.1978846285"><ele>121.74</ele><time>2014-01-22T10:17:46Z</time></trkpt><trkpt lat="51.7772381846" lon="-2.1979362611"><ele>122.22</ele><time>2014-01-22T10:18:02Z</time></trkpt><trkpt lat="51.7772456445" lon="-2.1979346685"><ele>122.22</ele><time>2014-01-22T10:18:27Z</time></trkpt><trkpt lat="51.7772208340" lon="-2.1978675295"><ele>123.19</ele><time>2014-01-22T10:18:53Z</time></trkpt><trkpt lat="51.7770437244" lon="-2.1976713091"><ele>125.59</ele><time>2014-01-22T10:19:11Z</time></trkpt><trkpt lat="51.7768875696" lon="-2.1975864843"><ele>128.95</ele><time>2014-01-22T10:19:28Z</time></trkpt><trkpt lat="51.7767238710" lon="-2.1975221112"><ele>129.92</ele><time>2014-01-22T10:19:53Z</time></trkpt><trkpt lat="51.7767197639" lon="-2.1974765975"><ele>129.92</ele><time>2014-01-22T10:20:17Z</time></trkpt><trkpt lat="51.7766963784" lon="-2.1974741668"><ele>130.88</ele><time>2014-01-22T10:20:21Z</time></trkpt><trkpt lat="51.7764541414" lon="-2.1975107957"><ele>132.32</ele><time>2014-01-22T10:20:41Z</time></trkpt><trkpt lat="51.7763501219" lon="-2.1975861490"><ele>133.28</ele><time>2014-01-22T10:20:55Z</time></trkpt><trkpt lat="51.7763212882" lon="-2.1975944471"><ele>129.92</ele><time>2014-01-22T10:21:01Z</time></trkpt><trkpt lat="51.7763190251" lon="-2.1975983027"><ele>134.72</ele><time>2014-01-22T10:21:02Z</time></trkpt><trkpt lat="51.7761346232" lon="-2.1975467540"><ele>134.24</ele><time>2014-01-22T10:21:20Z</time></trkpt><trkpt lat="51.7759183701" lon="-2.1975171659"><ele>135.20</ele><time>2014-01-22T10:21:39Z</time></trkpt><trkpt lat="51.7757938989" lon="-2.1975139808"><ele>135.20</ele><time>2014-01-22T10:21:55Z</time></trkpt><trkpt lat="51.7757397518" lon="-2.1974927746"><ele>136.16</ele><time>2014-01-22T10:22:14Z</time></trkpt><trkpt lat="51.7755439505" lon="-2.1974993963"><ele>136.64</ele><time>2014-01-22T10:22:30Z</time></trkpt><trkpt lat="51.7754231673" lon="-2.1974931937"><ele>136.64</ele><time>2014-01-22T10:22:44Z</time></trkpt><trkpt lat="51.7753344867" lon="-2.1975175012"><ele>137.13</ele><time>2014-01-22T10:22:53Z</time></trkpt><trkpt lat="51.7752919067" lon="-2.1975036711"><ele>137.13</ele><time>2014-01-22T10:22:56Z</time></trkpt><trkpt lat="51.7751105223" lon="-2.1974852309"><ele>138.09</ele><time>2014-01-22T10:23:12Z</time></trkpt><trkpt lat="51.7749857996" lon="-2.1974314190"><ele>139.05</ele><time>2014-01-22T10:23:24Z</time></trkpt><trkpt lat="51.7749332450" lon="-2.1973978914"><ele>139.05</ele><time>2014-01-22T10:23:29Z</time></trkpt><trkpt lat="51.7748452350" lon="-2.1973527130"><ele>140.49</ele><time>2014-01-22T10:23:36Z</time></trkpt><trkpt lat="51.7747231107" lon="-2.1973148268"><ele>143.37</ele><time>2014-01-22T10:23:51Z</time></trkpt><trkpt lat="51.7746767588" lon="-2.1973101329"><ele>142.89</ele><time>2014-01-22T10:23:55Z</time></trkpt><trkpt lat="51.7746097036" lon="-2.1973067801"><ele>142.89</ele><time>2014-01-22T10:23:59Z</time></trkpt><trkpt lat="51.7744339351" lon="-2.1972315107"><ele>144.34</ele><time>2014-01-22T10:24:14Z</time></trkpt><trkpt lat="51.7742938735" lon="-2.1972230449"><ele>145.78</ele><time>2014-01-22T10:24:27Z</time></trkpt><trkpt lat="51.7742501199" lon="-2.1972475201"><ele>146.74</ele><time>2014-01-22T10:24:42Z</time></trkpt><trkpt lat="51.7742451746" lon="-2.1972616017"><ele>146.74</ele><time>2014-01-22T10:24:51Z</time></trkpt><trkpt lat="51.7742121499" lon="-2.1972509567"><ele>147.22</ele><time>2014-01-22T10:24:54Z</time></trkpt><trkpt lat="51.7741577514" lon="-2.1972215362"><ele>148.66</ele><time>2014-01-22T10:24:58Z</time></trkpt><trkpt lat="51.7741124891" lon="-2.1972160880"><ele>147.70</ele><time>2014-01-22T10:25:01Z</time></trkpt><trkpt lat="51.7740360461" lon="-2.1972139087"><ele>148.18</ele><time>2014-01-22T10:25:07Z</time></trkpt><trkpt lat="51.7738926318" lon="-2.1972263139"><ele>151.06</ele><time>2014-01-22T10:25:19Z</time></trkpt><trkpt lat="51.7738440167" lon="-2.1972235478"><ele>151.54</ele><time>2014-01-22T10:25:22Z</time></trkpt><trkpt lat="51.7737710942" lon="-2.1972081251"><ele>152.51</ele><time>2014-01-22T10:25:28Z</time></trkpt><trkpt lat="51.7737234849" lon="-2.1971852425"><ele>152.99</ele><time>2014-01-22T10:25:33Z</time></trkpt><trkpt lat="51.7737004347" lon="-2.1971688978"><ele>152.99</ele><time>2014-01-22T10:25:35Z</time></trkpt><trkpt lat="51.7735269293" lon="-2.1971792914"><ele>154.91</ele><time>2014-01-22T10:25:48Z</time></trkpt><trkpt lat="51.7734353989" lon="-2.1971238032"><ele>155.39</ele><time>2014-01-22T10:26:00Z</time></trkpt><trkpt lat="51.7733975966" lon="-2.1971306764"><ele>155.39</ele><time>2014-01-22T10:26:04Z</time></trkpt><trkpt lat="51.7733545136" lon="-2.1971476078"><ele>155.39</ele><time>2014-01-22T10:26:14Z</time></trkpt><trkpt lat="51.7733447906" lon="-2.1972037666"><ele>155.39</ele><time>2014-01-22T10:26:31Z</time></trkpt><trkpt lat="51.7733635660" lon="-2.1971634496"><ele>155.39</ele><time>2014-01-22T10:26:53Z</time></trkpt><trkpt lat="51.7734210659" lon="-2.1970309317"><ele>156.35</ele><time>2014-01-22T10:27:15Z</time></trkpt><trkpt lat="51.7734063976" lon="-2.1969059575"><ele>157.79</ele><time>2014-01-22T10:27:33Z</time></trkpt><trkpt lat="51.7734216526" lon="-2.1967266686"><ele>159.24</ele><time>2014-01-22T10:27:53Z</time></trkpt><trkpt lat="51.7735032924" lon="-2.1964779776"><ele>160.68</ele><time>2014-01-22T10:28:16Z</time></trkpt><trkpt lat="51.7736140173" lon="-2.1962340642"><ele>162.12</ele><time>2014-01-22T10:28:39Z</time></trkpt><trkpt lat="51.7736181244" lon="-2.1962040570"><ele>162.60</ele><time>2014-01-22T10:28:55Z</time></trkpt><trkpt lat="51.7736484669" lon="-2.1961536817"><ele>162.60</ele><time>2014-01-22T10:29:21Z</time></trkpt><trkpt lat="51.7736488022" lon="-2.1961541008"><ele>158.75</ele><time>2014-01-22T10:29:29Z</time></trkpt><trkpt lat="51.7736469582" lon="-2.1962094214"><ele>161.16</ele><time>2014-01-22T10:29:34Z</time></trkpt><trkpt lat="51.7736467905" lon="-2.1962145343"><ele>170.77</ele><time>2014-01-22T10:29:35Z</time></trkpt><trkpt lat="51.7736465391" lon="-2.1962237544"><ele>164.52</ele><time>2014-01-22T10:29:36Z</time></trkpt><trkpt lat="51.7736461200" lon="-2.1962349862"><ele>162.60</ele><time>2014-01-22T10:29:37Z</time></trkpt><trkpt lat="51.7736098263" lon="-2.1960901469"><ele>162.12</ele><time>2014-01-22T10:29:58Z</time></trkpt><trkpt lat="51.7737167794" lon="-2.1958419587"><ele>162.60</ele><time>2014-01-22T10:30:13Z</time></trkpt><trkpt lat="51.7737432662" lon="-2.1958210040"><ele>161.64</ele><time>2014-01-22T10:30:25Z</time></trkpt><trkpt lat="51.7737724353" lon="-2.1957207564"><ele>162.60</ele><time>2014-01-22T10:30:31Z</time></trkpt><trkpt lat="51.7737966590" lon="-2.1955678705"><ele>162.12</ele><time>2014-01-22T10:30:37Z</time></trkpt><trkpt lat="51.7738562543" lon="-2.1953423135"><ele>162.12</ele><time>2014-01-22T10:30:48Z</time></trkpt><trkpt lat="51.7738956492" lon="-2.1951690596"><ele>161.64</ele><time>2014-01-22T10:30:56Z</time></trkpt><trkpt lat="51.7738989182" lon="-2.1951230429"><ele>162.12</ele><time>2014-01-22T10:30:58Z</time></trkpt><trkpt lat="51.7739079706" lon="-2.1948303469"><ele>161.64</ele><time>2014-01-22T10:31:12Z</time></trkpt><trkpt lat="51.7739161849" lon="-2.1946572606"><ele>161.64</ele><time>2014-01-22T10:31:20Z</time></trkpt><trkpt lat="51.7739160173" lon="-2.1943797357"><ele>161.64</ele><time>2014-01-22T10:31:34Z</time></trkpt><trkpt lat="51.7739345413" lon="-2.1941821743"><ele>161.64</ele><time>2014-01-22T10:31:45Z</time></trkpt><trkpt lat="51.7739642970" lon="-2.1939706989"><ele>161.64</ele><time>2014-01-22T10:31:54Z</time></trkpt><trkpt lat="51.7739778757" lon="-2.1938396897"><ele>161.16</ele><time>2014-01-22T10:31:59Z</time></trkpt><trkpt lat="51.7739953939" lon="-2.1936782543"><ele>161.64</ele><time>2014-01-22T10:32:07Z</time></trkpt><trkpt lat="51.7740119901" lon="-2.1935029048"><ele>161.64</ele><time>2014-01-22T10:32:14Z</time></trkpt><trkpt lat="51.7740373034" lon="-2.1932798624"><ele>161.64</ele><time>2014-01-22T10:32:25Z</time></trkpt><trkpt lat="51.7740660533" lon="-2.1929755155"><ele>162.60</ele><time>2014-01-22T10:32:41Z</time></trkpt><trkpt lat="51.7740626168" lon="-2.1928673889"><ele>162.60</ele><time>2014-01-22T10:32:48Z</time></trkpt><trkpt lat="51.7740784585" lon="-2.1926208772"><ele>163.08</ele><time>2014-01-22T10:33:03Z</time></trkpt><trkpt lat="51.7740833201" lon="-2.1924890298"><ele>163.08</ele><time>2014-01-22T10:33:13Z</time></trkpt><trkpt lat="51.7740923725" lon="-2.1922180429"><ele>162.12</ele><time>2014-01-22T10:33:29Z</time></trkpt><trkpt lat="51.7741093040" lon="-2.1920819208"><ele>162.12</ele><time>2014-01-22T10:33:46Z</time></trkpt><trkpt lat="51.7741336115" lon="-2.1918515023"><ele>161.64</ele><time>2014-01-22T10:34:02Z</time></trkpt><trkpt lat="51.7741371319" lon="-2.1918139514"><ele>161.16</ele><time>2014-01-22T10:34:06Z</time></trkpt><trkpt lat="51.7741442565" lon="-2.1917836089"><ele>161.64</ele><time>2014-01-22T10:34:08Z</time></trkpt><trkpt lat="51.7741786223" lon="-2.1915409528"><ele>161.16</ele><time>2014-01-22T10:34:23Z</time></trkpt><trkpt lat="51.7741931230" lon="-2.1914646775"><ele>161.16</ele><time>2014-01-22T10:34:28Z</time></trkpt><trkpt lat="51.7742053606" lon="-2.1914147213"><ele>161.16</ele><time>2014-01-22T10:34:31Z</time></trkpt><trkpt lat="51.7742611002" lon="-2.1911230311"><ele>161.16</ele><time>2014-01-22T10:34:48Z</time></trkpt><trkpt lat="51.7742960528" lon="-2.1910021640"><ele>160.68</ele><time>2014-01-22T10:34:56Z</time></trkpt><trkpt lat="51.7743023392" lon="-2.1909485199"><ele>161.16</ele><time>2014-01-22T10:35:00Z</time></trkpt><trkpt lat="51.7743130680" lon="-2.1908968035"><ele>160.68</ele><time>2014-01-22T10:35:03Z</time></trkpt><trkpt lat="51.7743550614" lon="-2.1906751022"><ele>160.68</ele><time>2014-01-22T10:35:19Z</time></trkpt><trkpt lat="51.7743644491" lon="-2.1906336118"><ele>160.68</ele><time>2014-01-22T10:35:22Z</time></trkpt><trkpt lat="51.7744133994" lon="-2.1904383972"><ele>160.68</ele><time>2014-01-22T10:35:36Z</time></trkpt><trkpt lat="51.7744226195" lon="-2.1904085577"><ele>160.68</ele><time>2014-01-22T10:35:38Z</time></trkpt><trkpt lat="51.7744675465" lon="-2.1902099904"><ele>159.72</ele><time>2014-01-22T10:35:52Z</time></trkpt><trkpt lat="51.7744700611" lon="-2.1902011055"><ele>160.68</ele><time>2014-01-22T10:35:53Z</time></trkpt><trkpt lat="51.7744834721" lon="-2.1901469585"><ele>160.20</ele><time>2014-01-22T10:35:57Z</time></trkpt><trkpt lat="51.7744986434" lon="-2.1900706831"><ele>160.20</ele><time>2014-01-22T10:36:02Z</time></trkpt><trkpt lat="51.7745514493" lon="-2.1898771450"><ele>159.72</ele><time>2014-01-22T10:36:15Z</time></trkpt><trkpt lat="51.7745795287" lon="-2.1897942480"><ele>160.20</ele><time>2014-01-22T10:36:21Z</time></trkpt><trkpt lat="51.7746049259" lon="-2.1896804217"><ele>160.20</ele><time>2014-01-22T10:36:28Z</time></trkpt><trkpt lat="51.7746569775" lon="-2.1894692816"><ele>160.68</ele><time>2014-01-22T10:36:42Z</time></trkpt><trkpt lat="51.7747101188" lon="-2.1892656852"><ele>160.68</ele><time>2014-01-22T10:36:57Z</time></trkpt><trkpt lat="51.7747784313" lon="-2.1890107077"><ele>161.16</ele><time>2014-01-22T10:37:13Z</time></trkpt><trkpt lat="51.7747775931" lon="-2.1890055947"><ele>161.16</ele><time>2014-01-22T10:37:15Z</time></trkpt><trkpt lat="51.7748442292" lon="-2.1888234559"><ele>161.16</ele><time>2014-01-22T10:37:29Z</time></trkpt><trkpt lat="51.7748713866" lon="-2.1887315903"><ele>161.16</ele><time>2014-01-22T10:37:42Z</time></trkpt><trkpt lat="51.7748531979" lon="-2.1887355298"><ele>161.64</ele><time>2014-01-22T10:38:06Z</time></trkpt><trkpt lat="51.7748640105" lon="-2.1886792872"><ele>162.12</ele><time>2014-01-22T10:38:23Z</time></trkpt><trkpt lat="51.7749246117" lon="-2.1885204501"><ele>161.64</ele><time>2014-01-22T10:38:32Z</time></trkpt><trkpt lat="51.7749870569" lon="-2.1882933844"><ele>161.64</ele><time>2014-01-22T10:38:47Z</time></trkpt><trkpt lat="51.7750552017" lon="-2.1879975032"><ele>161.64</ele><time>2014-01-22T10:39:04Z</time></trkpt><trkpt lat="51.7751386855" lon="-2.1877867822"><ele>160.20</ele><time>2014-01-22T10:39:20Z</time></trkpt><trkpt lat="51.7752063274" lon="-2.1876054816"><ele>160.20</ele><time>2014-01-22T10:39:34Z</time></trkpt><trkpt lat="51.7752893921" lon="-2.1874235105"><ele>159.24</ele><time>2014-01-22T10:39:48Z</time></trkpt><trkpt lat="51.7753624823" lon="-2.1872848738"><ele>159.24</ele><time>2014-01-22T10:40:00Z</time></trkpt><trkpt lat="51.7754425295" lon="-2.1871037409"><ele>158.75</ele><time>2014-01-22T10:40:15Z</time></trkpt><trkpt lat="51.7754534259" lon="-2.1870731469"><ele>158.75</ele><time>2014-01-22T10:40:17Z</time></trkpt><trkpt lat="51.7754798289" lon="-2.1870312374"><ele>159.24</ele><time>2014-01-22T10:40:20Z</time></trkpt><trkpt lat="51.7754975986" lon="-2.1869915072"><ele>158.75</ele><time>2014-01-22T10:40:23Z</time></trkpt><trkpt lat="51.7755230796" lon="-2.1869455744"><ele>158.75</ele><time>2014-01-22T10:40:27Z</time></trkpt><trkpt lat="51.7755461298" lon="-2.1869141422"><ele>158.75</ele><time>2014-01-22T10:40:30Z</time></trkpt><trkpt lat="51.7755603790" lon="-2.1868904214"><ele>158.27</ele><time>2014-01-22T10:40:32Z</time></trkpt><trkpt lat="51.7756029591" lon="-2.1868314967"><ele>158.27</ele><time>2014-01-22T10:40:37Z</time></trkpt><trkpt lat="51.7756235786" lon="-2.1867827978"><ele>158.27</ele><time>2014-01-22T10:40:40Z</time></trkpt><trkpt lat="51.7757236585" lon="-2.1865983121"><ele>157.79</ele><time>2014-01-22T10:40:55Z</time></trkpt><trkpt lat="51.7758089863" lon="-2.1864679735"><ele>157.79</ele><time>2014-01-22T10:41:09Z</time></trkpt><trkpt lat="51.7758058012" lon="-2.1864067018"><ele>157.31</ele><time>2014-01-22T10:41:31Z</time></trkpt><trkpt lat="51.7758977506" lon="-2.1861899458"><ele>157.31</ele><time>2014-01-22T10:41:47Z</time></trkpt><trkpt lat="51.7759814020" lon="-2.1859790571"><ele>157.31</ele><time>2014-01-22T10:42:03Z</time></trkpt><trkpt lat="51.7761081364" lon="-2.1857797354"><ele>156.83</ele><time>2014-01-22T10:42:18Z</time></trkpt><trkpt lat="51.7762351222" lon="-2.1856183838"><ele>156.35</ele><time>2014-01-22T10:42:35Z</time></trkpt><trkpt lat="51.7763608508" lon="-2.1854639892"><ele>155.87</ele><time>2014-01-22T10:42:53Z</time></trkpt><trkpt lat="51.7764537223" lon="-2.1853313036"><ele>154.91</ele><time>2014-01-22T10:43:09Z</time></trkpt><trkpt lat="51.7765094619" lon="-2.1851704549"><ele>154.91</ele><time>2014-01-22T10:43:22Z</time></trkpt><trkpt lat="51.7765534669" lon="-2.1850559581"><ele>154.91</ele><time>2014-01-22T10:43:30Z</time></trkpt><trkpt lat="51.7765876651" lon="-2.1849609073"><ele>154.43</ele><time>2014-01-22T10:43:42Z</time></trkpt><trkpt lat="51.7766611744" lon="-2.1847433131"><ele>154.43</ele><time>2014-01-22T10:43:54Z</time></trkpt><trkpt lat="51.7766925227" lon="-2.1845472604"><ele>154.91</ele><time>2014-01-22T10:44:06Z</time></trkpt><trkpt lat="51.7767335102" lon="-2.1844126470"><ele>154.43</ele><time>2014-01-22T10:44:18Z</time></trkpt><trkpt lat="51.7767629307" lon="-2.1842440031"><ele>154.43</ele><time>2014-01-22T10:44:33Z</time></trkpt><trkpt lat="51.7768050916" lon="-2.1841251478"><ele>155.87</ele><time>2014-01-22T10:44:46Z</time></trkpt><trkpt lat="51.7768295668" lon="-2.1840421669"><ele>156.35</ele><time>2014-01-22T10:45:01Z</time></trkpt><trkpt lat="51.7768416367" lon="-2.1840585954"><ele>155.87</ele><time>2014-01-22T10:45:03Z</time></trkpt><trkpt lat="51.7768449895" lon="-2.1839960665"><ele>156.35</ele><time>2014-01-22T10:45:15Z</time></trkpt><trkpt lat="51.7768822890" lon="-2.1837012749"><ele>157.31</ele><time>2014-01-22T10:45:30Z</time></trkpt><trkpt lat="51.7768981308" lon="-2.1834560204"><ele>158.75</ele><time>2014-01-22T10:45:48Z</time></trkpt><trkpt lat="51.7769146431" lon="-2.1833463851"><ele>158.75</ele><time>2014-01-22T10:45:55Z</time></trkpt><trkpt lat="51.7769411299" lon="-2.1828795969"><ele>160.20</ele><time>2014-01-22T10:46:15Z</time></trkpt><trkpt lat="51.7769608274" lon="-2.1826029103"><ele>161.64</ele><time>2014-01-22T10:46:31Z</time></trkpt><trkpt lat="51.7769726459" lon="-2.1824182570"><ele>164.04</ele><time>2014-01-22T10:46:49Z</time></trkpt><trkpt lat="51.7769962829" lon="-2.1822088771"><ele>165.00</ele><time>2014-01-22T10:47:05Z</time></trkpt><trkpt lat="51.7770119570" lon="-2.1819937136"><ele>167.41</ele><time>2014-01-22T10:47:22Z</time></trkpt><trkpt lat="51.7770064250" lon="-2.1815980878"><ele>168.85</ele><time>2014-01-22T10:47:34Z</time></trkpt><trkpt lat="51.7770173214" lon="-2.1813552640"><ele>169.81</ele><time>2014-01-22T10:47:47Z</time></trkpt><trkpt lat="51.7770330794" lon="-2.1812804975"><ele>170.77</ele><time>2014-01-22T10:48:06Z</time></trkpt><trkpt lat="51.7770644277" lon="-2.1811188944"><ele>172.21</ele><time>2014-01-22T10:48:22Z</time></trkpt><trkpt lat="51.7770908307" lon="-2.1810058225"><ele>172.69</ele><time>2014-01-22T10:48:35Z</time></trkpt><trkpt lat="51.7771117855" lon="-2.1808624081"><ele>173.66</ele><time>2014-01-22T10:48:54Z</time></trkpt><trkpt lat="51.7771926709" lon="-2.1805507690"><ele>174.62</ele><time>2014-01-22T10:49:11Z</time></trkpt><trkpt lat="51.7773428746" lon="-2.1803250443"><ele>175.58</ele><time>2014-01-22T10:49:30Z</time></trkpt><trkpt lat="51.7774825171" lon="-2.1800880041"><ele>176.06</ele><time>2014-01-22T10:49:48Z</time></trkpt><trkpt lat="51.7774981912" lon="-2.1800605953"><ele>176.06</ele><time>2014-01-22T10:49:50Z</time></trkpt><trkpt lat="51.7775970139" lon="-2.1798924543"><ele>176.06</ele><time>2014-01-22T10:50:04Z</time></trkpt><trkpt lat="51.7776690144" lon="-2.1797282528"><ele>176.06</ele><time>2014-01-22T10:50:16Z</time></trkpt><trkpt lat="51.7777312919" lon="-2.1796289273"><ele>176.06</ele><time>2014-01-22T10:50:24Z</time></trkpt><trkpt lat="51.7778252531" lon="-2.1794371493"><ele>176.54</ele><time>2014-01-22T10:50:38Z</time></trkpt><trkpt lat="51.7779228184" lon="-2.1792845149"><ele>177.02</ele><time>2014-01-22T10:50:51Z</time></trkpt><trkpt lat="51.7780289333" lon="-2.1790955029"><ele>176.54</ele><time>2014-01-22T10:51:07Z</time></trkpt><trkpt lat="51.7780925520" lon="-2.1789799165"><ele>177.50</ele><time>2014-01-22T10:51:20Z</time></trkpt><trkpt lat="51.7781420890" lon="-2.1789040603"><ele>177.50</ele><time>2014-01-22T10:51:37Z</time></trkpt><trkpt lat="51.7781857587" lon="-2.1788644977"><ele>177.50</ele><time>2014-01-22T10:51:50Z</time></trkpt><trkpt lat="51.7782665603" lon="-2.1786934230"><ele>177.50</ele><time>2014-01-22T10:51:58Z</time></trkpt><trkpt lat="51.7783274129" lon="-2.1786158066"><ele>177.98</ele><time>2014-01-22T10:52:04Z</time></trkpt><trkpt lat="51.7784476094" lon="-2.1783982124"><ele>178.94</ele><time>2014-01-22T10:52:20Z</time></trkpt><trkpt lat="51.7785115633" lon="-2.1783202607"><ele>178.94</ele><time>2014-01-22T10:52:26Z</time></trkpt><trkpt lat="51.7785302550" lon="-2.1783020720"><ele>179.42</ele><time>2014-01-22T10:52:28Z</time></trkpt><trkpt lat="51.7785817198" lon="-2.1782296523"><ele>178.94</ele><time>2014-01-22T10:52:39Z</time></trkpt><trkpt lat="51.7785556521" lon="-2.1781449951"><ele>180.38</ele><time>2014-01-22T10:52:52Z</time></trkpt><trkpt lat="51.7786217853" lon="-2.1780979726"><ele>179.90</ele><time>2014-01-22T10:53:09Z</time></trkpt><trkpt lat="51.7786756810" lon="-2.1780658700"><ele>179.90</ele><time>2014-01-22T10:53:23Z</time></trkpt><trkpt lat="51.7787018325" lon="-2.1780191828"><ele>180.87</ele><time>2014-01-22T10:53:37Z</time></trkpt><trkpt lat="51.7786610126" lon="-2.1780139022"><ele>181.83</ele><time>2014-01-22T10:53:53Z</time></trkpt><trkpt lat="51.7786633596" lon="-2.1780216135"><ele>181.35</ele><time>2014-01-22T10:54:17Z</time></trkpt><trkpt lat="51.7786629405" lon="-2.1780231223"><ele>181.35</ele><time>2014-01-22T10:54:36Z</time></trkpt><trkpt lat="51.7786719091" lon="-2.1780461725"><ele>181.35</ele><time>2014-01-22T10:54:58Z</time></trkpt><trkpt lat="51.7786745913" lon="-2.1780402213"><ele>181.35</ele><time>2014-01-22T10:55:13Z</time></trkpt><trkpt lat="51.7786773574" lon="-2.1780170035"><ele>180.87</ele><time>2014-01-22T10:55:37Z</time></trkpt><trkpt lat="51.7786739208" lon="-2.1779988147"><ele>180.38</ele><time>2014-01-22T10:56:02Z</time></trkpt><trkpt lat="51.7787611764" lon="-2.1779543068"><ele>180.87</ele><time>2014-01-22T10:56:20Z</time></trkpt><trkpt lat="51.7787627690" lon="-2.1779581625"><ele>180.38</ele><time>2014-01-22T10:56:39Z</time></trkpt><trkpt lat="51.7788049299" lon="-2.1779300831"><ele>180.87</ele><time>2014-01-22T10:56:53Z</time></trkpt><trkpt lat="51.7787789460" lon="-2.1779472660"><ele>179.90</ele><time>2014-01-22T10:57:05Z</time></trkpt><trkpt lat="51.7787835561" lon="-2.1779720765"><ele>180.38</ele><time>2014-01-22T10:57:27Z</time></trkpt><trkpt lat="51.7787629366" lon="-2.1779983956"><ele>180.38</ele><time>2014-01-22T10:57:42Z</time></trkpt><trkpt lat="51.7787426524" lon="-2.1780008264"><ele>180.38</ele><time>2014-01-22T10:58:12Z</time></trkpt><trkpt lat="51.7787431553" lon="-2.1780043468"><ele>180.87</ele><time>2014-01-22T10:58:40Z</time></trkpt><trkpt lat="51.7787517048" lon="-2.1780025028"><ele>180.87</ele><time>2014-01-22T10:59:03Z</time></trkpt><trkpt lat="51.7787517887" lon="-2.1779987309"><ele>180.87</ele><time>2014-01-22T10:59:20Z</time></trkpt><trkpt lat="51.7787516210" lon="-2.1779885050"><ele>180.87</ele><time>2014-01-22T10:59:47Z</time></trkpt><trkpt lat="51.7787499446" lon="-2.1779853199"><ele>180.87</ele><time>2014-01-22T11:00:18Z</time></trkpt><trkpt lat="51.7787478492" lon="-2.1779883374"><ele>180.38</ele><time>2014-01-22T11:00:43Z</time></trkpt><trkpt lat="51.7787482683" lon="-2.1779908519"><ele>181.35</ele><time>2014-01-22T11:01:13Z</time></trkpt><trkpt lat="51.7787664570" lon="-2.1779678017"><ele>181.83</ele><time>2014-01-22T11:01:35Z</time></trkpt><trkpt lat="51.7787552252" lon="-2.1779667959"><ele>180.87</ele><time>2014-01-22T11:01:46Z</time></trkpt><trkpt lat="51.7787510343" lon="-2.1779611800"><ele>181.35</ele><time>2014-01-22T11:02:12Z</time></trkpt><trkpt lat="51.7787492741" lon="-2.1779534686"><ele>181.83</ele><time>2014-01-22T11:02:42Z</time></trkpt><trkpt lat="51.7787590809" lon="-2.1779536363"><ele>181.35</ele><time>2014-01-22T11:03:01Z</time></trkpt><trkpt lat="51.7787650321" lon="-2.1779613476"><ele>181.83</ele><time>2014-01-22T11:03:33Z</time></trkpt><trkpt lat="51.7787615955" lon="-2.1779621858"><ele>181.35</ele><time>2014-01-22T11:03:51Z</time></trkpt><trkpt lat="51.7787529621" lon="-2.1779481880"><ele>181.83</ele><time>2014-01-22T11:04:09Z</time></trkpt><trkpt lat="51.7787643615" lon="-2.1779527981"><ele>182.31</ele><time>2014-01-22T11:04:45Z</time></trkpt><trkpt lat="51.7787501961" lon="-2.1779408120"><ele>182.79</ele><time>2014-01-22T11:05:09Z</time></trkpt><trkpt lat="51.7787559796" lon="-2.1779424883"><ele>182.79</ele><time>2014-01-22T11:05:39Z</time></trkpt><trkpt lat="51.7787621822" lon="-2.1779473498"><ele>182.79</ele><time>2014-01-22T11:06:11Z</time></trkpt><trkpt lat="51.7787709832" lon="-2.1779544745"><ele>183.27</ele><time>2014-01-22T11:06:44Z</time></trkpt><trkpt lat="51.7787776049" lon="-2.1779274009"><ele>183.27</ele><time>2014-01-22T11:07:18Z</time></trkpt><trkpt lat="51.7787825502" lon="-2.1779326815"><ele>183.27</ele><time>2014-01-22T11:07:50Z</time></trkpt><trkpt lat="51.7787773535" lon="-2.1779432427"><ele>183.27</ele><time>2014-01-22T11:08:24Z</time></trkpt><trkpt lat="51.7787648644" lon="-2.1779369563"><ele>182.31</ele><time>2014-01-22T11:08:49Z</time></trkpt><trkpt lat="51.7787636071" lon="-2.1779885050"><ele>182.31</ele><time>2014-01-22T11:08:52Z</time></trkpt><trkpt lat="51.7787594162" lon="-2.1780327614"><ele>181.35</ele><time>2014-01-22T11:08:56Z</time></trkpt><trkpt lat="51.7787755094" lon="-2.1780217811"><ele>181.35</ele><time>2014-01-22T11:08:58Z</time></trkpt><trkpt lat="51.7788294051" lon="-2.1779545583"><ele>181.35</ele><time>2014-01-22T11:09:07Z</time></trkpt><trkpt lat="51.7788848095" lon="-2.1778937895"><ele>181.35</ele><time>2014-01-22T11:09:13Z</time></trkpt><trkpt lat="51.7789083626" lon="-2.1778545622"><ele>180.87</ele><time>2014-01-22T11:09:16Z</time></trkpt><trkpt lat="51.7789998930" lon="-2.1777970623"><ele>180.38</ele><time>2014-01-22T11:09:23Z</time></trkpt><trkpt lat="51.7790166568" lon="-2.1777821425"><ele>180.87</ele><time>2014-01-22T11:09:25Z</time></trkpt><trkpt lat="51.7790905014" lon="-2.1777525544"><ele>180.87</ele><time>2014-01-22T11:09:32Z</time></trkpt><trkpt lat="51.7791249510" lon="-2.1777307615"><ele>180.87</ele><time>2014-01-22T11:09:35Z</time></trkpt><trkpt lat="51.7792075127" lon="-2.1776927914"><ele>180.87</ele><time>2014-01-22T11:09:42Z</time></trkpt><trkpt lat="51.7793527711" lon="-2.1776337828"><ele>180.38</ele><time>2014-01-22T11:09:53Z</time></trkpt><trkpt lat="51.7793674394" lon="-2.1776258200"><ele>180.38</ele><time>2014-01-22T11:09:54Z</time></trkpt><trkpt lat="51.7794877198" lon="-2.1775729302"><ele>180.38</ele><time>2014-01-22T11:10:04Z</time></trkpt><trkpt lat="51.7795562837" lon="-2.1775637101"><ele>179.90</ele><time>2014-01-22T11:10:08Z</time></trkpt><trkpt lat="51.7796145380" lon="-2.1775399894"><ele>180.87</ele><time>2014-01-22T11:10:11Z</time></trkpt><trkpt lat="51.7796357442" lon="-2.1775478683"><ele>180.38</ele><time>2014-01-22T11:10:16Z</time></trkpt><trkpt lat="51.7797110975" lon="-2.1775074676"><ele>179.42</ele><time>2014-01-22T11:10:21Z</time></trkpt><trkpt lat="51.7797489837" lon="-2.1774865128"><ele>180.38</ele><time>2014-01-22T11:10:23Z</time></trkpt><trkpt lat="51.7798005324" lon="-2.1774708387"><ele>179.90</ele><time>2014-01-22T11:10:29Z</time></trkpt><trkpt lat="51.7799629737" lon="-2.1773793083"><ele>179.42</ele><time>2014-01-22T11:10:41Z</time></trkpt><trkpt lat="51.7799699306" lon="-2.1773689147"><ele>178.94</ele><time>2014-01-22T11:10:42Z</time></trkpt><trkpt lat="51.7800569348" lon="-2.1773210540"><ele>179.42</ele><time>2014-01-22T11:10:48Z</time></trkpt><trkpt lat="51.7801327072" lon="-2.1772883646"><ele>178.46</ele><time>2014-01-22T11:10:55Z</time></trkpt><trkpt lat="51.7802016065" lon="-2.1772436891"><ele>178.94</ele><time>2014-01-22T11:11:00Z</time></trkpt><trkpt lat="51.7802689131" lon="-2.1772168670"><ele>177.98</ele><time>2014-01-22T11:11:07Z</time></trkpt><trkpt lat="51.7803276703" lon="-2.1771762148"><ele>177.98</ele><time>2014-01-22T11:11:11Z</time></trkpt><trkpt lat="51.7804458551" lon="-2.1771068964"><ele>177.02</ele><time>2014-01-22T11:11:21Z</time></trkpt><trkpt lat="51.7805845756" lon="-2.1770452894"><ele>176.54</ele><time>2014-01-22T11:11:32Z</time></trkpt><trkpt lat="51.7805855814" lon="-2.1770441998"><ele>177.02</ele><time>2014-01-22T11:11:33Z</time></trkpt><trkpt lat="51.7807725817" lon="-2.1770072356"><ele>176.06</ele><time>2014-01-22T11:11:46Z</time></trkpt><trkpt lat="51.7807813827" lon="-2.1770101693"><ele>175.58</ele><time>2014-01-22T11:11:48Z</time></trkpt><trkpt lat="51.7808506172" lon="-2.1770210657"><ele>175.10</ele><time>2014-01-22T11:11:52Z</time></trkpt><trkpt lat="51.7809174210" lon="-2.1770233288"><ele>174.62</ele><time>2014-01-22T11:11:55Z</time></trkpt><trkpt lat="51.7809662037" lon="-2.1770396736"><ele>174.62</ele><time>2014-01-22T11:12:00Z</time></trkpt><trkpt lat="51.7810066883" lon="-2.1770335548"><ele>174.14</ele><time>2014-01-22T11:12:03Z</time></trkpt><trkpt lat="51.7810744140" lon="-2.1770403441"><ele>173.66</ele><time>2014-01-22T11:12:07Z</time></trkpt><trkpt lat="51.7811775114" lon="-2.1770333871"><ele>173.17</ele><time>2014-01-22T11:12:15Z</time></trkpt><trkpt lat="51.7812031601" lon="-2.1770287771"><ele>173.66</ele><time>2014-01-22T11:12:17Z</time></trkpt><trkpt lat="51.7813521903" lon="-2.1770012006"><ele>172.21</ele><time>2014-01-22T11:12:29Z</time></trkpt><trkpt lat="51.7814293038" lon="-2.1769578662"><ele>172.21</ele><time>2014-01-22T11:12:34Z</time></trkpt><trkpt lat="51.7815777473" lon="-2.1768744662"><ele>172.69</ele><time>2014-01-22T11:12:46Z</time></trkpt><trkpt lat="51.7816625722" lon="-2.1768416092"><ele>172.21</ele><time>2014-01-22T11:12:53Z</time></trkpt><trkpt lat="51.7817812599" lon="-2.1768034715"><ele>172.69</ele><time>2014-01-22T11:13:01Z</time></trkpt><trkpt lat="51.7818327248" lon="-2.1767907310"><ele>173.17</ele><time>2014-01-22T11:13:07Z</time></trkpt><trkpt lat="51.7819928192" lon="-2.1767068282"><ele>172.21</ele><time>2014-01-22T11:13:19Z</time></trkpt><trkpt lat="51.7820638139" lon="-2.1766556986"><ele>172.69</ele><time>2014-01-22T11:13:24Z</time></trkpt><trkpt lat="51.7821251694" lon="-2.1766309720"><ele>172.21</ele><time>2014-01-22T11:13:31Z</time></trkpt><trkpt lat="51.7822061386" lon="-2.1766085923"><ele>171.73</ele><time>2014-01-22T11:13:36Z</time></trkpt><trkpt lat="51.7823095713" lon="-2.1765343286"><ele>172.21</ele><time>2014-01-22T11:13:45Z</time></trkpt><trkpt lat="51.7823398300" lon="-2.1765198279"><ele>172.21</ele><time>2014-01-22T11:13:47Z</time></trkpt><trkpt lat="51.7824036162" lon="-2.1764476597"><ele>172.21</ele><time>2014-01-22T11:13:56Z</time></trkpt><trkpt lat="51.7824017722" lon="-2.1764448099"><ele>172.69</ele><time>2014-01-22T11:13:58Z</time></trkpt><trkpt lat="51.7823991738" lon="-2.1764044091"><ele>173.17</ele><time>2014-01-22T11:14:07Z</time></trkpt><trkpt lat="51.7824171111" lon="-2.1764491685"><ele>172.21</ele><time>2014-01-22T11:14:11Z</time></trkpt><trkpt lat="51.7825551610" lon="-2.1763719711"><ele>172.69</ele><time>2014-01-22T11:14:23Z</time></trkpt><trkpt lat="51.7826197855" lon="-2.1763201710"><ele>172.21</ele><time>2014-01-22T11:14:30Z</time></trkpt><trkpt lat="51.7826709151" lon="-2.1762694605"><ele>172.21</ele><time>2014-01-22T11:14:34Z</time></trkpt><trkpt lat="51.7827743478" lon="-2.1761960350"><ele>172.21</ele><time>2014-01-22T11:14:43Z</time></trkpt><trkpt lat="51.7829559837" lon="-2.1761586517"><ele>172.21</ele><time>2014-01-22T11:14:56Z</time></trkpt><trkpt lat="51.7830998171" lon="-2.1760791913"><ele>173.17</ele><time>2014-01-22T11:15:09Z</time></trkpt><trkpt lat="51.7831618432" lon="-2.1760537103"><ele>172.69</ele><time>2014-01-22T11:15:20Z</time></trkpt><trkpt lat="51.7831830494" lon="-2.1760419756"><ele>172.69</ele><time>2014-01-22T11:15:22Z</time></trkpt><trkpt lat="51.7832121346" lon="-2.1760334261"><ele>172.69</ele><time>2014-01-22T11:15:26Z</time></trkpt><trkpt lat="51.7832937744" lon="-2.1759646107"><ele>172.21</ele><time>2014-01-22T11:15:35Z</time></trkpt><trkpt lat="51.7833490111" lon="-2.1759195160"><ele>172.21</ele><time>2014-01-22T11:15:39Z</time></trkpt><trkpt lat="51.7834241129" lon="-2.1758645307"><ele>172.21</ele><time>2014-01-22T11:15:47Z</time></trkpt><trkpt lat="51.7834781762" lon="-2.1758182626"><ele>172.21</ele><time>2014-01-22T11:15:51Z</time></trkpt><trkpt lat="51.7835740652" lon="-2.1757379640"><ele>172.69</ele><time>2014-01-22T11:16:00Z</time></trkpt><trkpt lat="51.7836399470" lon="-2.1756840684"><ele>172.21</ele><time>2014-01-22T11:16:05Z</time></trkpt><trkpt lat="51.7836994585" lon="-2.1756314300"><ele>173.17</ele><time>2014-01-22T11:16:11Z</time></trkpt><trkpt lat="51.7837358359" lon="-2.1756063681"><ele>172.69</ele><time>2014-01-22T11:16:14Z</time></trkpt><trkpt lat="51.7838443816" lon="-2.1755426656"><ele>172.69</ele><time>2014-01-22T11:16:24Z</time></trkpt><trkpt lat="51.7838656716" lon="-2.1755330265"><ele>173.17</ele><time>2014-01-22T11:16:26Z</time></trkpt><trkpt lat="51.7838905659" lon="-2.1755147539"><ele>172.69</ele><time>2014-01-22T11:16:28Z</time></trkpt><trkpt lat="51.7840628978" lon="-2.1753803920"><ele>173.66</ele><time>2014-01-22T11:16:43Z</time></trkpt><trkpt lat="51.7841009516" lon="-2.1753566712"><ele>172.69</ele><time>2014-01-22T11:16:48Z</time></trkpt><trkpt lat="51.7841649894" lon="-2.1753224730"><ele>172.69</ele><time>2014-01-22T11:16:52Z</time></trkpt><trkpt lat="51.7842984293" lon="-2.1752430964"><ele>173.17</ele><time>2014-01-22T11:17:04Z</time></trkpt><trkpt lat="51.7843085714" lon="-2.1752374806"><ele>172.69</ele><time>2014-01-22T11:17:07Z</time></trkpt><trkpt lat="51.7843783088" lon="-2.1751938108"><ele>172.21</ele><time>2014-01-22T11:17:18Z</time></trkpt><trkpt lat="51.7844021972" lon="-2.1751666535"><ele>172.69</ele><time>2014-01-22T11:17:22Z</time></trkpt><trkpt lat="51.7844616249" lon="-2.1751239896"><ele>172.21</ele><time>2014-01-22T11:17:28Z</time></trkpt><trkpt lat="51.7845639680" lon="-2.1750794817"><ele>172.69</ele><time>2014-01-22T11:17:36Z</time></trkpt><trkpt lat="51.7846768722" lon="-2.1749648172"><ele>173.17</ele><time>2014-01-22T11:17:50Z</time></trkpt><trkpt lat="51.7846923787" lon="-2.1749509871"><ele>172.69</ele><time>2014-01-22T11:17:53Z</time></trkpt><trkpt lat="51.7847725097" lon="-2.1749224886"><ele>172.21</ele><time>2014-01-22T11:18:01Z</time></trkpt><trkpt lat="51.7848298419" lon="-2.1748846862"><ele>172.21</ele><time>2014-01-22T11:18:08Z</time></trkpt><trkpt lat="51.7849090509" lon="-2.1748366579"><ele>172.69</ele><time>2014-01-22T11:18:16Z</time></trkpt><trkpt lat="51.7849735916" lon="-2.1747861151"><ele>172.69</ele><time>2014-01-22T11:18:22Z</time></trkpt><trkpt lat="51.7850336898" lon="-2.1747407690"><ele>172.69</ele><time>2014-01-22T11:18:27Z</time></trkpt><trkpt lat="51.7850505374" lon="-2.1747201495"><ele>172.21</ele><time>2014-01-22T11:18:29Z</time></trkpt><trkpt lat="51.7850988172" lon="-2.1746961772"><ele>172.69</ele><time>2014-01-22T11:18:35Z</time></trkpt><trkpt lat="51.7851601727" lon="-2.1746768989"><ele>172.21</ele><time>2014-01-22T11:18:42Z</time></trkpt><trkpt lat="51.7852470092" lon="-2.1746946685"><ele>172.21</ele><time>2014-01-22T11:18:53Z</time></trkpt><trkpt lat="51.7852973845" lon="-2.1746568661"><ele>172.21</ele><time>2014-01-22T11:18:57Z</time></trkpt><trkpt lat="51.7853532918" lon="-2.1746129449"><ele>172.21</ele><time>2014-01-22T11:19:05Z</time></trkpt><trkpt lat="51.7854914255" lon="-2.1745023876"><ele>173.17</ele><time>2014-01-22T11:19:19Z</time></trkpt><trkpt lat="51.7856310681" lon="-2.1743842866"><ele>172.21</ele><time>2014-01-22T11:19:32Z</time></trkpt><trkpt lat="51.7857027333" lon="-2.1743200812"><ele>172.21</ele><time>2014-01-22T11:19:40Z</time></trkpt><trkpt lat="51.7857805174" lon="-2.1742438897"><ele>172.69</ele><time>2014-01-22T11:19:49Z</time></trkpt><trkpt lat="51.7858419567" lon="-2.1741814446"><ele>173.66</ele><time>2014-01-22T11:19:59Z</time></trkpt><trkpt lat="51.7858567089" lon="-2.1741939336"><ele>173.66</ele><time>2014-01-22T11:20:13Z</time></trkpt><trkpt lat="51.7858749814" lon="-2.1741666086"><ele>173.66</ele><time>2014-01-22T11:20:21Z</time></trkpt><trkpt lat="51.7858486623" lon="-2.1741641778"><ele>175.10</ele><time>2014-01-22T11:20:24Z</time></trkpt><trkpt lat="51.7858147155" lon="-2.1741640940"><ele>175.10</ele><time>2014-01-22T11:20:37Z</time></trkpt><trkpt lat="51.7858209182" lon="-2.1741569694"><ele>175.58</ele><time>2014-01-22T11:20:39Z</time></trkpt><trkpt lat="51.7859441321" lon="-2.1741039120"><ele>173.66</ele><time>2014-01-22T11:20:50Z</time></trkpt><trkpt lat="51.7859882209" lon="-2.1740889084"><ele>174.14</ele><time>2014-01-22T11:20:58Z</time></trkpt><trkpt lat="51.7860549409" lon="-2.1740200091"><ele>174.62</ele><time>2014-01-22T11:21:07Z</time></trkpt><trkpt lat="51.7860920727" lon="-2.1739888284"><ele>175.10</ele><time>2014-01-22T11:21:13Z</time></trkpt><trkpt lat="51.7861240078" lon="-2.1739535406"><ele>175.10</ele><time>2014-01-22T11:21:17Z</time></trkpt><trkpt lat="51.7861550208" lon="-2.1739073563"><ele>175.58</ele><time>2014-01-22T11:21:20Z</time></trkpt><trkpt lat="51.7862382531" lon="-2.1737965476"><ele>176.06</ele><time>2014-01-22T11:21:32Z</time></trkpt><trkpt lat="51.7863037158" lon="-2.1737392154"><ele>176.54</ele><time>2014-01-22T11:21:41Z</time></trkpt><trkpt lat="51.7863638978" lon="-2.1737201884"><ele>177.02</ele><time>2014-01-22T11:21:55Z</time></trkpt><trkpt lat="51.7863814998" lon="-2.1737314202"><ele>177.02</ele><time>2014-01-22T11:22:14Z</time></trkpt><trkpt lat="51.7863917258" lon="-2.1737264749"><ele>176.06</ele><time>2014-01-22T11:22:22Z</time></trkpt><trkpt lat="51.7864409275" lon="-2.1737066936"><ele>176.06</ele><time>2014-01-22T11:22:27Z</time></trkpt><trkpt lat="51.7865652312" lon="-2.1736618504"><ele>176.54</ele><time>2014-01-22T11:22:39Z</time></trkpt><trkpt lat="51.7866130918" lon="-2.1736424044"><ele>176.06</ele><time>2014-01-22T11:22:44Z</time></trkpt><trkpt lat="51.7866616230" lon="-2.1736523788"><ele>176.54</ele><time>2014-01-22T11:22:49Z</time></trkpt><trkpt lat="51.7866793927" lon="-2.1736430749"><ele>176.54</ele><time>2014-01-22T11:22:51Z</time></trkpt><trkpt lat="51.7867226433" lon="-2.1736216173"><ele>176.06</ele><time>2014-01-22T11:22:56Z</time></trkpt><trkpt lat="51.7868498806" lon="-2.1735735890"><ele>176.06</ele><time>2014-01-22T11:23:11Z</time></trkpt><trkpt lat="51.7869628686" lon="-2.1735239681"><ele>176.06</ele><time>2014-01-22T11:23:23Z</time></trkpt><trkpt lat="51.7869959772" lon="-2.1735211182"><ele>176.06</ele><time>2014-01-22T11:23:27Z</time></trkpt><trkpt lat="51.7870736774" lon="-2.1734933741"><ele>176.06</ele><time>2014-01-22T11:23:40Z</time></trkpt><trkpt lat="51.7870977335" lon="-2.1734866686"><ele>175.58</ele><time>2014-01-22T11:23:43Z</time></trkpt><trkpt lat="51.7871517129" lon="-2.1734480280"><ele>175.10</ele><time>2014-01-22T11:23:49Z</time></trkpt><trkpt lat="51.7872051056" lon="-2.1734360419"><ele>175.10</ele><time>2014-01-22T11:23:55Z</time></trkpt><trkpt lat="51.7872762680" lon="-2.1734129917"><ele>174.62</ele><time>2014-01-22T11:24:01Z</time></trkpt><trkpt lat="51.7873202730" lon="-2.1733925398"><ele>175.10</ele><time>2014-01-22T11:24:06Z</time></trkpt><trkpt lat="51.7873486876" lon="-2.1733891871"><ele>174.62</ele><time>2014-01-22T11:24:09Z</time></trkpt><trkpt lat="51.7873686366" lon="-2.1733965632"><ele>174.14</ele><time>2014-01-22T11:24:15Z</time></trkpt><trkpt lat="51.7874366138" lon="-2.1733538993"><ele>174.14</ele><time>2014-01-22T11:24:21Z</time></trkpt><trkpt lat="51.7874564789" lon="-2.1733450145"><ele>173.66</ele><time>2014-01-22T11:24:23Z</time></trkpt><trkpt lat="51.7875444051" lon="-2.1733344533"><ele>173.66</ele><time>2014-01-22T11:24:33Z</time></trkpt><trkpt lat="51.7875540443" lon="-2.1733380575"><ele>172.69</ele><time>2014-01-22T11:24:36Z</time></trkpt><trkpt lat="51.7875797767" lon="-2.1733493730"><ele>173.17</ele><time>2014-01-22T11:24:48Z</time></trkpt><trkpt lat="51.7875822075" lon="-2.1733602695"><ele>173.66</ele><time>2014-01-22T11:24:49Z</time></trkpt><trkpt lat="51.7875842191" lon="-2.1734185237"><ele>172.69</ele><time>2014-01-22T11:25:05Z</time></trkpt><trkpt lat="51.7875791900" lon="-2.1734341979"><ele>173.17</ele><time>2014-01-22T11:25:12Z</time></trkpt><trkpt lat="51.7875370290" lon="-2.1735115629"><ele>172.21</ele><time>2014-01-22T11:25:17Z</time></trkpt><trkpt lat="51.7874608375" lon="-2.1736659575"><ele>171.25</ele><time>2014-01-22T11:25:28Z</time></trkpt><trkpt lat="51.7874498572" lon="-2.1736762673"><ele>171.25</ele><time>2014-01-22T11:25:29Z</time></trkpt><trkpt lat="51.7873660382" lon="-2.1738094557"><ele>169.81</ele><time>2014-01-22T11:25:40Z</time></trkpt><trkpt lat="51.7872812133" lon="-2.1739076916"><ele>169.81</ele><time>2014-01-22T11:25:50Z</time></trkpt><trkpt lat="51.7872102186" lon="-2.1739770938"><ele>170.29</ele><time>2014-01-22T11:25:55Z</time></trkpt><trkpt lat="51.7871352006" lon="-2.1740589011"><ele>169.33</ele><time>2014-01-22T11:26:03Z</time></trkpt><trkpt lat="51.7871122342" lon="-2.1740878187"><ele>169.33</ele><time>2014-01-22T11:26:05Z</time></trkpt><trkpt lat="51.7869906127" lon="-2.1741829533"><ele>168.37</ele><time>2014-01-22T11:26:16Z</time></trkpt><trkpt lat="51.7868964002" lon="-2.1742859669"><ele>168.37</ele><time>2014-01-22T11:26:29Z</time></trkpt><trkpt lat="51.7868896946" lon="-2.1742962766"><ele>167.89</ele><time>2014-01-22T11:26:50Z</time></trkpt><trkpt lat="51.7868807260" lon="-2.1743044909"><ele>168.37</ele><time>2014-01-22T11:27:09Z</time></trkpt><trkpt lat="51.7868008465" lon="-2.1743427124"><ele>167.41</ele><time>2014-01-22T11:27:21Z</time></trkpt><trkpt lat="51.7867138423" lon="-2.1744353324"><ele>167.89</ele><time>2014-01-22T11:27:30Z</time></trkpt><trkpt lat="51.7867131718" lon="-2.1744367573"><ele>167.41</ele><time>2014-01-22T11:27:31Z</time></trkpt><trkpt lat="51.7865990102" lon="-2.1745864581"><ele>166.45</ele><time>2014-01-22T11:27:42Z</time></trkpt><trkpt lat="51.7864867765" lon="-2.1747153718"><ele>165.48</ele><time>2014-01-22T11:27:53Z</time></trkpt><trkpt lat="51.7864716891" lon="-2.1747361589"><ele>165.48</ele><time>2014-01-22T11:27:55Z</time></trkpt><trkpt lat="51.7864405084" lon="-2.1747683454"><ele>165.00</ele><time>2014-01-22T11:27:58Z</time></trkpt><trkpt lat="51.7863829248" lon="-2.1748245042"><ele>165.00</ele><time>2014-01-22T11:28:07Z</time></trkpt><trkpt lat="51.7862303741" lon="-2.1749778092"><ele>164.04</ele><time>2014-01-22T11:28:19Z</time></trkpt><trkpt lat="51.7861323897" lon="-2.1750604548"><ele>163.56</ele><time>2014-01-22T11:28:29Z</time></trkpt><trkpt lat="51.7860367522" lon="-2.1751379874"><ele>162.60</ele><time>2014-01-22T11:28:39Z</time></trkpt><trkpt lat="51.7859425396" lon="-2.1752126701"><ele>162.12</ele><time>2014-01-22T11:28:48Z</time></trkpt><trkpt lat="51.7859007977" lon="-2.1752501372"><ele>162.60</ele><time>2014-01-22T11:28:53Z</time></trkpt><trkpt lat="51.7858680245" lon="-2.1752478741"><ele>162.12</ele><time>2014-01-22T11:28:58Z</time></trkpt><trkpt lat="51.7858390231" lon="-2.1752653085"><ele>162.12</ele><time>2014-01-22T11:29:01Z</time></trkpt><trkpt lat="51.7857282143" lon="-2.1753751952"><ele>162.12</ele><time>2014-01-22T11:29:14Z</time></trkpt><trkpt lat="51.7857178207" lon="-2.1753849182"><ele>162.12</ele><time>2014-01-22T11:29:16Z</time></trkpt><trkpt lat="51.7856989615" lon="-2.1754150931"><ele>162.12</ele><time>2014-01-22T11:29:18Z</time></trkpt><trkpt lat="51.7855887394" lon="-2.1756050270"><ele>162.12</ele><time>2014-01-22T11:29:30Z</time></trkpt><trkpt lat="51.7855746578" lon="-2.1756251436"><ele>162.12</ele><time>2014-01-22T11:29:34Z</time></trkpt><trkpt lat="51.7855507694" lon="-2.1756761894"><ele>161.64</ele><time>2014-01-22T11:29:37Z</time></trkpt><trkpt lat="51.7854992207" lon="-2.1758466773"><ele>160.68</ele><time>2014-01-22T11:29:48Z</time></trkpt><trkpt lat="51.7854594905" lon="-2.1759281494"><ele>159.72</ele><time>2014-01-22T11:29:55Z</time></trkpt><trkpt lat="51.7853771802" lon="-2.1760522854"><ele>159.24</ele><time>2014-01-22T11:30:04Z</time></trkpt><trkpt lat="51.7853271402" lon="-2.1761035826"><ele>159.24</ele><time>2014-01-22T11:30:10Z</time></trkpt><trkpt lat="51.7851989809" lon="-2.1762334183"><ele>158.75</ele><time>2014-01-22T11:30:24Z</time></trkpt><trkpt lat="51.7851015832" lon="-2.1763629187"><ele>158.27</ele><time>2014-01-22T11:30:38Z</time></trkpt><trkpt lat="51.7850477714" lon="-2.1764008049"><ele>157.79</ele><time>2014-01-22T11:30:57Z</time></trkpt><trkpt lat="51.7850093823" lon="-2.1764171496"><ele>158.27</ele><time>2014-01-22T11:31:11Z</time></trkpt><trkpt lat="51.7849857453" lon="-2.1764894016"><ele>157.79</ele><time>2014-01-22T11:31:17Z</time></trkpt><trkpt lat="51.7849600129" lon="-2.1765433811"><ele>157.31</ele><time>2014-01-22T11:31:22Z</time></trkpt><trkpt lat="51.7848849948" lon="-2.1767459717"><ele>156.83</ele><time>2014-01-22T11:31:37Z</time></trkpt><trkpt lat="51.7848788761" lon="-2.1767842770"><ele>156.35</ele><time>2014-01-22T11:31:40Z</time></trkpt><trkpt lat="51.7848721705" lon="-2.1768748853"><ele>155.87</ele><time>2014-01-22T11:31:46Z</time></trkpt><trkpt lat="51.7848485336" lon="-2.1769489814"><ele>155.87</ele><time>2014-01-22T11:31:56Z</time></trkpt><trkpt lat="51.7848457675" lon="-2.1769298706"><ele>155.87</ele><time>2014-01-22T11:32:11Z</time></trkpt><trkpt lat="51.7848554067" lon="-2.1770413499"><ele>155.39</ele><time>2014-01-22T11:32:29Z</time></trkpt><trkpt lat="51.7848388106" lon="-2.1769823413"><ele>155.87</ele><time>2014-01-22T11:32:51Z</time></trkpt><trkpt lat="51.7848325241" lon="-2.1769133583"><ele>155.87</ele><time>2014-01-22T11:33:02Z</time></trkpt><trkpt lat="51.7848316859" lon="-2.1769024618"><ele>156.83</ele><time>2014-01-22T11:33:22Z</time></trkpt><trkpt lat="51.7848231364" lon="-2.1769183036"><ele>157.31</ele><time>2014-01-22T11:33:37Z</time></trkpt><trkpt lat="51.7848055344" lon="-2.1769194771"><ele>158.27</ele><time>2014-01-22T11:33:46Z</time></trkpt><trkpt lat="51.7847878486" lon="-2.1769732889"><ele>157.79</ele><time>2014-01-22T11:33:50Z</time></trkpt><trkpt lat="51.7846646346" lon="-2.1771347243"><ele>156.35</ele><time>2014-01-22T11:34:03Z</time></trkpt><trkpt lat="51.7846274190" lon="-2.1771792322"><ele>156.83</ele><time>2014-01-22T11:34:07Z</time></trkpt><trkpt lat="51.7844994273" lon="-2.1773461159"><ele>155.39</ele><time>2014-01-22T11:34:21Z</time></trkpt><trkpt lat="51.7843616288" lon="-2.1775210463"><ele>153.95</ele><time>2014-01-22T11:34:36Z</time></trkpt><trkpt lat="51.7842440307" lon="-2.1776533965"><ele>154.91</ele><time>2014-01-22T11:34:47Z</time></trkpt><trkpt lat="51.7842188850" lon="-2.1776773687"><ele>155.39</ele><time>2014-01-22T11:34:50Z</time></trkpt><trkpt lat="51.7841594573" lon="-2.1777631994"><ele>154.91</ele><time>2014-01-22T11:34:58Z</time></trkpt><trkpt lat="51.7841330543" lon="-2.1778017562"><ele>154.91</ele><time>2014-01-22T11:35:01Z</time></trkpt><trkpt lat="51.7840134446" lon="-2.1780241281"><ele>155.39</ele><time>2014-01-22T11:35:16Z</time></trkpt><trkpt lat="51.7839005403" lon="-2.1781672910"><ele>154.43</ele><time>2014-01-22T11:35:29Z</time></trkpt><trkpt lat="51.7837918270" lon="-2.1783200093"><ele>154.91</ele><time>2014-01-22T11:35:42Z</time></trkpt><trkpt lat="51.7837618198" lon="-2.1783608291"><ele>155.39</ele><time>2014-01-22T11:35:54Z</time></trkpt><trkpt lat="51.7837262806" lon="-2.1784266271"><ele>154.91</ele><time>2014-01-22T11:36:09Z</time></trkpt><trkpt lat="51.7837114446" lon="-2.1785163973"><ele>155.39</ele><time>2014-01-22T11:36:23Z</time></trkpt><trkpt lat="51.7837138753" lon="-2.1785212588"><ele>154.91</ele><time>2014-01-22T11:36:41Z</time></trkpt><trkpt lat="51.7837073375" lon="-2.1785275452"><ele>154.91</ele><time>2014-01-22T11:36:57Z</time></trkpt><trkpt lat="51.7836626619" lon="-2.1785591450"><ele>153.95</ele><time>2014-01-22T11:37:08Z</time></trkpt><trkpt lat="51.7836334091" lon="-2.1785927564"><ele>153.95</ele><time>2014-01-22T11:37:12Z</time></trkpt><trkpt lat="51.7836056650" lon="-2.1786266193"><ele>154.43</ele><time>2014-01-22T11:37:15Z</time></trkpt><trkpt lat="51.7835185770" lon="-2.1787106898"><ele>153.47</ele><time>2014-01-22T11:37:23Z</time></trkpt><trkpt lat="51.7834474985" lon="-2.1787743922"><ele>153.47</ele><time>2014-01-22T11:37:30Z</time></trkpt><trkpt lat="51.7833151482" lon="-2.1789391804"><ele>152.99</ele><time>2014-01-22T11:37:44Z</time></trkpt><trkpt lat="51.7832230311" lon="-2.1790390927"><ele>152.51</ele><time>2014-01-22T11:37:54Z</time></trkpt><trkpt lat="51.7830938660" lon="-2.1791313775"><ele>152.99</ele><time>2014-01-22T11:38:06Z</time></trkpt><trkpt lat="51.7830357794" lon="-2.1791783161"><ele>152.99</ele><time>2014-01-22T11:38:11Z</time></trkpt><trkpt lat="51.7830105498" lon="-2.1791900508"><ele>152.51</ele><time>2014-01-22T11:38:13Z</time></trkpt><trkpt lat="51.7828554846" lon="-2.1792865265"><ele>152.51</ele><time>2014-01-22T11:38:27Z</time></trkpt><trkpt lat="51.7827139981" lon="-2.1793608740"><ele>152.03</ele><time>2014-01-22T11:38:40Z</time></trkpt><trkpt lat="51.7826792132" lon="-2.1793863550"><ele>152.03</ele><time>2014-01-22T11:38:43Z</time></trkpt><trkpt lat="51.7826063745" lon="-2.1794254147"><ele>152.03</ele><time>2014-01-22T11:38:50Z</time></trkpt><trkpt lat="51.7824423406" lon="-2.1794879436"><ele>152.03</ele><time>2014-01-22T11:39:04Z</time></trkpt><trkpt lat="51.7823058832" lon="-2.1795197949"><ele>151.06</ele><time>2014-01-22T11:39:16Z</time></trkpt><trkpt lat="51.7821675818" lon="-2.1795565914"><ele>150.58</ele><time>2014-01-22T11:39:28Z</time></trkpt><trkpt lat="51.7819948308" lon="-2.1795969084"><ele>150.58</ele><time>2014-01-22T11:39:42Z</time></trkpt><trkpt lat="51.7819287814" lon="-2.1795959026"><ele>150.10</ele><time>2014-01-22T11:39:47Z</time></trkpt><trkpt lat="51.7817983590" lon="-2.1795869339"><ele>151.54</ele><time>2014-01-22T11:40:00Z</time></trkpt><trkpt lat="51.7817658372" lon="-2.1795750316"><ele>152.03</ele><time>2014-01-22T11:40:18Z</time></trkpt><trkpt lat="51.7817572039" lon="-2.1795890294"><ele>152.03</ele><time>2014-01-22T11:40:23Z</time></trkpt><trkpt lat="51.7817355786" lon="-2.1796199586"><ele>152.51</ele><time>2014-01-22T11:40:37Z</time></trkpt><trkpt lat="51.7817355786" lon="-2.1796446014"><ele>151.54</ele><time>2014-01-22T11:41:07Z</time></trkpt><trkpt lat="51.7817379255" lon="-2.1796866786"><ele>150.58</ele><time>2014-01-22T11:41:14Z</time></trkpt><trkpt lat="51.7817499116" lon="-2.1797917038"><ele>150.10</ele><time>2014-01-22T11:41:21Z</time></trkpt><trkpt lat="51.7817663401" lon="-2.1798735112"><ele>148.66</ele><time>2014-01-22T11:41:35Z</time></trkpt><trkpt lat="51.7817915697" lon="-2.1800471842"><ele>147.22</ele><time>2014-01-22T11:41:47Z</time></trkpt><trkpt lat="51.7818328924" lon="-2.1802900918"><ele>145.78</ele><time>2014-01-22T11:42:02Z</time></trkpt><trkpt lat="51.7818511650" lon="-2.1803420596"><ele>145.30</ele><time>2014-01-22T11:42:06Z</time></trkpt><trkpt lat="51.7818949185" lon="-2.1806477476"><ele>143.37</ele><time>2014-01-22T11:42:22Z</time></trkpt><trkpt lat="51.7819372471" lon="-2.1809032280"><ele>141.45</ele><time>2014-01-22T11:42:36Z</time></trkpt><trkpt lat="51.7819972616" lon="-2.1810826007"><ele>139.53</ele><time>2014-01-22T11:42:49Z</time></trkpt><trkpt lat="51.7820338067" lon="-2.1811894700"><ele>138.57</ele><time>2014-01-22T11:42:57Z</time></trkpt><trkpt lat="51.7820905522" lon="-2.1813587844"><ele>137.13</ele><time>2014-01-22T11:43:09Z</time></trkpt><trkpt lat="51.7821814958" lon="-2.1815638896"><ele>135.20</ele><time>2014-01-22T11:43:24Z</time></trkpt><trkpt lat="51.7821886204" lon="-2.1815788932"><ele>135.20</ele><time>2014-01-22T11:43:25Z</time></trkpt><trkpt lat="51.7822151072" lon="-2.1816138458"><ele>134.72</ele><time>2014-01-22T11:43:28Z</time></trkpt><trkpt lat="51.7823194619" lon="-2.1817990858"><ele>133.28</ele><time>2014-01-22T11:43:42Z</time></trkpt><trkpt lat="51.7823895346" lon="-2.1819091402"><ele>132.32</ele><time>2014-01-22T11:43:50Z</time></trkpt><trkpt lat="51.7824199609" lon="-2.1819315199"><ele>132.32</ele><time>2014-01-22T11:43:53Z</time></trkpt><trkpt lat="51.7825420853" lon="-2.1820333600"><ele>130.88</ele><time>2014-01-22T11:44:06Z</time></trkpt><trkpt lat="51.7826692387" lon="-2.1821372118"><ele>128.95</ele><time>2014-01-22T11:44:21Z</time></trkpt><trkpt lat="51.7826699093" lon="-2.1821626928"><ele>128.95</ele><time>2014-01-22T11:44:31Z</time></trkpt><trkpt lat="51.7826806381" lon="-2.1821719967"><ele>128.95</ele><time>2014-01-22T11:44:43Z</time></trkpt><trkpt lat="51.7827345338" lon="-2.1821870003"><ele>128.47</ele><time>2014-01-22T11:44:50Z</time></trkpt><trkpt lat="51.7828701530" lon="-2.1822667960"><ele>127.51</ele><time>2014-01-22T11:45:04Z</time></trkpt><trkpt lat="51.7829569895" lon="-2.1823174227"><ele>127.99</ele><time>2014-01-22T11:45:12Z</time></trkpt><trkpt lat="51.7830253858" lon="-2.1823369525"><ele>127.51</ele><time>2014-01-22T11:45:18Z</time></trkpt><trkpt lat="51.7831713147" lon="-2.1823789459"><ele>127.51</ele><time>2014-01-22T11:45:30Z</time></trkpt><trkpt lat="51.7833014019" lon="-2.1823782753"><ele>126.55</ele><time>2014-01-22T11:45:42Z</time></trkpt><trkpt lat="51.7833423056" lon="-2.1823643614"><ele>126.55</ele><time>2014-01-22T11:45:46Z</time></trkpt><trkpt lat="51.7833980452" lon="-2.1823633555"><ele>126.55</ele><time>2014-01-22T11:45:51Z</time></trkpt><trkpt lat="51.7834715545" lon="-2.1824997291"><ele>127.03</ele><time>2014-01-22T11:46:04Z</time></trkpt><trkpt lat="51.7835170683" lon="-2.1825572290"><ele>126.55</ele><time>2014-01-22T11:46:11Z</time></trkpt><trkpt lat="51.7835384421" lon="-2.1825554688"><ele>127.03</ele><time>2014-01-22T11:46:13Z</time></trkpt><trkpt lat="51.7836116161" lon="-2.1826404613"><ele>127.03</ele><time>2014-01-22T11:46:21Z</time></trkpt><trkpt lat="51.7836394440" lon="-2.1826724801"><ele>126.55</ele><time>2014-01-22T11:46:25Z</time></trkpt><trkpt lat="51.7837598082" lon="-2.1828482486"><ele>127.99</ele><time>2014-01-22T11:46:41Z</time></trkpt><trkpt lat="51.7838204093" lon="-2.1829329059"><ele>127.99</ele><time>2014-01-22T11:46:51Z</time></trkpt><trkpt lat="51.7838242650" lon="-2.1829441376"><ele>128.47</ele><time>2014-01-22T11:46:52Z</time></trkpt><trkpt lat="51.7838754784" lon="-2.1830604784"><ele>128.47</ele><time>2014-01-22T11:46:59Z</time></trkpt><trkpt lat="51.7840116844" lon="-2.1832562797"><ele>127.99</ele><time>2014-01-22T11:47:13Z</time></trkpt><trkpt lat="51.7841271032" lon="-2.1833891328"><ele>127.51</ele><time>2014-01-22T11:47:26Z</time></trkpt><trkpt lat="51.7841118481" lon="-2.1834094170"><ele>127.99</ele><time>2014-01-22T11:47:39Z</time></trkpt><trkpt lat="51.7841122672" lon="-2.1834109258"><ele>127.99</ele><time>2014-01-22T11:47:46Z</time></trkpt><trkpt lat="51.7842805758" lon="-2.1835721098"><ele>127.03</ele><time>2014-01-22T11:48:04Z</time></trkpt><trkpt lat="51.7843526602" lon="-2.1836481337"><ele>126.07</ele><time>2014-01-22T11:48:17Z</time></trkpt><trkpt lat="51.7843555100" lon="-2.1836436912"><ele>126.07</ele><time>2014-01-22T11:48:35Z</time></trkpt><trkpt lat="51.7843580246" lon="-2.1836437751"><ele>121.26</ele><time>2014-01-22T11:48:38Z</time></trkpt><trkpt lat="51.7843576893" lon="-2.1836433560"><ele>128.95</ele><time>2014-01-22T11:48:39Z</time></trkpt><trkpt lat="51.7843575217" lon="-2.1836437751"><ele>124.63</ele><time>2014-01-22T11:48:42Z</time></trkpt><trkpt lat="51.7844520696" lon="-2.1837294381"><ele>124.63</ele><time>2014-01-22T11:48:57Z</time></trkpt><trkpt lat="51.7844684981" lon="-2.1837750357"><ele>123.67</ele><time>2014-01-22T11:49:00Z</time></trkpt><trkpt lat="51.7845339607" lon="-2.1838506404"><ele>123.19</ele><time>2014-01-22T11:49:13Z</time></trkpt><trkpt lat="51.7846089788" lon="-2.1839608625"><ele>122.22</ele><time>2014-01-22T11:49:28Z</time></trkpt><trkpt lat="51.7846788000" lon="-2.1839727648"><ele>120.30</ele><time>2014-01-22T11:49:41Z</time></trkpt><trkpt lat="51.7847559135" lon="-2.1839762852"><ele>120.30</ele><time>2014-01-22T11:49:54Z</time></trkpt><trkpt lat="51.7848908622" lon="-2.1839502174"><ele>119.82</ele><time>2014-01-22T11:50:10Z</time></trkpt><trkpt lat="51.7850352824" lon="-2.1839937195"><ele>118.38</ele><time>2014-01-22T11:50:22Z</time></trkpt><trkpt lat="51.7851564009" lon="-2.1840456035"><ele>116.94</ele><time>2014-01-22T11:50:34Z</time></trkpt><trkpt lat="51.7852433212" lon="-2.1840699948"><ele>115.50</ele><time>2014-01-22T11:50:46Z</time></trkpt><trkpt lat="51.7853485141" lon="-2.1841151733"><ele>112.61</ele><time>2014-01-22T11:50:59Z</time></trkpt><trkpt lat="51.7853588238" lon="-2.1841172688"><ele>111.65</ele><time>2014-01-22T11:51:10Z</time></trkpt><trkpt lat="51.7854072712" lon="-2.1841351222"><ele>110.69</ele><time>2014-01-22T11:51:16Z</time></trkpt><trkpt lat="51.7855279706" lon="-2.1841941308"><ele>108.29</ele><time>2014-01-22T11:51:30Z</time></trkpt><trkpt lat="51.7856439762" lon="-2.1842574142"><ele>105.88</ele><time>2014-01-22T11:51:44Z</time></trkpt><trkpt lat="51.7856971174" lon="-2.1842984017"><ele>103.48</ele><time>2014-01-22T11:51:57Z</time></trkpt><trkpt lat="51.7857277952" lon="-2.1843196917"><ele>103.00</ele><time>2014-01-22T11:52:04Z</time></trkpt><trkpt lat="51.7857915815" lon="-2.1843564045"><ele>101.08</ele><time>2014-01-22T11:52:11Z</time></trkpt><trkpt lat="51.7858389392" lon="-2.1843869984"><ele>100.60</ele><time>2014-01-22T11:52:16Z</time></trkpt><trkpt lat="51.7858664319" lon="-2.1844090428"><ele>100.11</ele><time>2014-01-22T11:52:19Z</time></trkpt><trkpt lat="51.7859224230" lon="-2.1844467614"><ele>99.15</ele><time>2014-01-22T11:52:24Z</time></trkpt><trkpt lat="51.7860639933" lon="-2.1845478471"><ele>97.71</ele><time>2014-01-22T11:52:38Z</time></trkpt><trkpt lat="51.7861304618" lon="-2.1845822968"><ele>97.23</ele><time>2014-01-22T11:52:52Z</time></trkpt><trkpt lat="51.7861432023" lon="-2.1846160758"><ele>97.23</ele><time>2014-01-22T11:53:09Z</time></trkpt><trkpt lat="51.7861593794" lon="-2.1846392937"><ele>96.75</ele><time>2014-01-22T11:53:25Z</time></trkpt><trkpt lat="51.7861801665" lon="-2.1846692171"><ele>96.27</ele><time>2014-01-22T11:53:36Z</time></trkpt><trkpt lat="51.7862563580" lon="-2.1847679559"><ele>96.27</ele><time>2014-01-22T11:53:48Z</time></trkpt><trkpt lat="51.7862647399" lon="-2.1847714763"><ele>94.83</ele><time>2014-01-22T11:54:01Z</time></trkpt><trkpt lat="51.7862753011" lon="-2.1847781818"><ele>94.83</ele><time>2014-01-22T11:54:19Z</time></trkpt><trkpt lat="51.7862948310" lon="-2.1848084405"><ele>94.83</ele><time>2014-01-22T11:54:34Z</time></trkpt><trkpt lat="51.7863936536" lon="-2.1849855501"><ele>94.83</ele><time>2014-01-22T11:54:47Z</time></trkpt><trkpt lat="51.7864858545" lon="-2.1851703711"><ele>95.31</ele><time>2014-01-22T11:55:01Z</time></trkpt><trkpt lat="51.7864999361" lon="-2.1852254402"><ele>96.27</ele><time>2014-01-22T11:55:05Z</time></trkpt><trkpt lat="51.7865223996" lon="-2.1853060741"><ele>96.27</ele><time>2014-01-22T11:55:09Z</time></trkpt><trkpt lat="51.7865239084" lon="-2.1853751410"><ele>96.27</ele><time>2014-01-22T11:55:13Z</time></trkpt><trkpt lat="51.7865215614" lon="-2.1854770649"><ele>96.27</ele><time>2014-01-22T11:55:19Z</time></trkpt><trkpt lat="51.7864972539" lon="-2.1855785698"><ele>96.75</ele><time>2014-01-22T11:55:25Z</time></trkpt><trkpt lat="51.7864833400" lon="-2.1856581978"><ele>97.71</ele><time>2014-01-22T11:55:30Z</time></trkpt><trkpt lat="51.7864740361" lon="-2.1856910549"><ele>97.71</ele><time>2014-01-22T11:55:32Z</time></trkpt><trkpt lat="51.7863773089" lon="-2.1859741118"><ele>98.19</ele><time>2014-01-22T11:55:49Z</time></trkpt><trkpt lat="51.7863158695" lon="-2.1861004271"><ele>98.67</ele><time>2014-01-22T11:56:02Z</time></trkpt><trkpt lat="51.7863125168" lon="-2.1861072164"><ele>98.67</ele><time>2014-01-22T11:56:04Z</time></trkpt><trkpt lat="51.7862913944" lon="-2.1861824021"><ele>98.67</ele><time>2014-01-22T11:56:09Z</time></trkpt><trkpt lat="51.7862535920" lon="-2.1863582544"><ele>99.63</ele><time>2014-01-22T11:56:19Z</time></trkpt><trkpt lat="51.7862518318" lon="-2.1864322666"><ele>100.11</ele><time>2014-01-22T11:56:23Z</time></trkpt><trkpt lat="51.7862662487" lon="-2.1865062788"><ele>100.60</ele><time>2014-01-22T11:56:37Z</time></trkpt><trkpt lat="51.7862616386" lon="-2.1865211986"><ele>100.60</ele><time>2014-01-22T11:56:38Z</time></trkpt><trkpt lat="51.7862621415" lon="-2.1866532136"><ele>100.60</ele><time>2014-01-22T11:56:45Z</time></trkpt><trkpt lat="51.7863314599" lon="-2.1868818719"><ele>103.00</ele><time>2014-01-22T11:57:00Z</time></trkpt><trkpt lat="51.7863407638" lon="-2.1869490109"><ele>103.48</ele><time>2014-01-22T11:57:13Z</time></trkpt><trkpt lat="51.7863599584" lon="-2.1870386973"><ele>104.92</ele><time>2014-01-22T11:57:23Z</time></trkpt><trkpt lat="51.7863931507" lon="-2.1871505119"><ele>105.88</ele><time>2014-01-22T11:57:30Z</time></trkpt><trkpt lat="51.7864219844" lon="-2.1871959418"><ele>106.36</ele><time>2014-01-22T11:57:33Z</time></trkpt><trkpt lat="51.7864272650" lon="-2.1872375160"><ele>106.36</ele><time>2014-01-22T11:57:35Z</time></trkpt><trkpt lat="51.7864652351" lon="-2.1873728838"><ele>107.81</ele><time>2014-01-22T11:57:43Z</time></trkpt><trkpt lat="51.7865209747" lon="-2.1874914039"><ele>109.25</ele><time>2014-01-22T11:57:53Z</time></trkpt><trkpt lat="51.7865599506" lon="-2.1875858679"><ele>110.21</ele><time>2014-01-22T11:58:06Z</time></trkpt><trkpt lat="51.7866074760" lon="-2.1877259295"><ele>112.61</ele><time>2014-01-22T11:58:18Z</time></trkpt><trkpt lat="51.7866170313" lon="-2.1877774782"><ele>112.61</ele><time>2014-01-22T11:58:22Z</time></trkpt><trkpt lat="51.7866353039" lon="-2.1878181305"><ele>113.57</ele><time>2014-01-22T11:58:29Z</time></trkpt><trkpt lat="51.7866964079" lon="-2.1879628859"><ele>115.01</ele><time>2014-01-22T11:58:38Z</time></trkpt><trkpt lat="51.7867421731" lon="-2.1881158557"><ele>117.90</ele><time>2014-01-22T11:58:48Z</time></trkpt><trkpt lat="51.7867681570" lon="-2.1882114094"><ele>118.86</ele><time>2014-01-22T11:58:54Z</time></trkpt><trkpt lat="51.7867487110" lon="-2.1883464418"><ele>119.34</ele><time>2014-01-22T11:59:01Z</time></trkpt><trkpt lat="51.7867027782" lon="-2.1885536425"><ele>121.74</ele><time>2014-01-22T11:59:13Z</time></trkpt><trkpt lat="51.7866910435" lon="-2.1885986533"><ele>122.22</ele><time>2014-01-22T11:59:16Z</time></trkpt><trkpt lat="51.7866752017" lon="-2.1887124795"><ele>123.19</ele><time>2014-01-22T11:59:23Z</time></trkpt><trkpt lat="51.7866497207" lon="-2.1888592467"><ele>124.15</ele><time>2014-01-22T11:59:37Z</time></trkpt><trkpt lat="51.7866479605" lon="-2.1888675448"><ele>123.67</ele><time>2014-01-22T11:59:59Z</time></trkpt><trkpt lat="51.7866411712" lon="-2.1889123041"><ele>124.63</ele><time>2014-01-22T12:00:07Z</time></trkpt><trkpt lat="51.7866404168" lon="-2.1889495198"><ele>124.63</ele><time>2014-01-22T12:00:09Z</time></trkpt><trkpt lat="51.7866348010" lon="-2.1890530363"><ele>124.63</ele><time>2014-01-22T12:00:15Z</time></trkpt><trkpt lat="51.7866000999" lon="-2.1891736519"><ele>125.11</ele><time>2014-01-22T12:00:21Z</time></trkpt><trkpt lat="51.7865333799" lon="-2.1893339977"><ele>126.07</ele><time>2014-01-22T12:00:32Z</time></trkpt><trkpt lat="51.7864914704" lon="-2.1895514242"><ele>127.03</ele><time>2014-01-22T12:00:46Z</time></trkpt><trkpt lat="51.7864602897" lon="-2.1897006221"><ele>127.51</ele><time>2014-01-22T12:00:55Z</time></trkpt><trkpt lat="51.7864441965" lon="-2.1898121852"><ele>128.47</ele><time>2014-01-22T12:01:02Z</time></trkpt><trkpt lat="51.7864296958" lon="-2.1898643207"><ele>128.47</ele><time>2014-01-22T12:01:06Z</time></trkpt><trkpt lat="51.7864090763" lon="-2.1900079027"><ele>129.43</ele><time>2014-01-22T12:01:16Z</time></trkpt><trkpt lat="51.7864042986" lon="-2.1900450345"><ele>129.43</ele><time>2014-01-22T12:01:18Z</time></trkpt><trkpt lat="51.7863791529" lon="-2.1901546698"><ele>129.43</ele><time>2014-01-22T12:01:30Z</time></trkpt><trkpt lat="51.7863709386" lon="-2.1901717689"><ele>129.92</ele><time>2014-01-22T12:01:31Z</time></trkpt><trkpt lat="51.7863538396" lon="-2.1902306937"><ele>129.92</ele><time>2014-01-22T12:01:35Z</time></trkpt><trkpt lat="51.7862683441" lon="-2.1904338710"><ele>130.88</ele><time>2014-01-22T12:01:49Z</time></trkpt><trkpt lat="51.7862402648" lon="-2.1905112360"><ele>131.84</ele><time>2014-01-22T12:01:54Z</time></trkpt><trkpt lat="51.7861976009" lon="-2.1906250622"><ele>131.84</ele><time>2014-01-22T12:02:00Z</time></trkpt><trkpt lat="51.7861706112" lon="-2.1908307541"><ele>132.80</ele><time>2014-01-22T12:02:12Z</time></trkpt><trkpt lat="51.7861666717" lon="-2.1909021679"><ele>133.28</ele><time>2014-01-22T12:02:26Z</time></trkpt><trkpt lat="51.7861807533" lon="-2.1909516212"><ele>133.76</ele><time>2014-01-22T12:02:29Z</time></trkpt><trkpt lat="51.7861867044" lon="-2.1909848973"><ele>133.76</ele><time>2014-01-22T12:02:31Z</time></trkpt><trkpt lat="51.7861787416" lon="-2.1911204327"><ele>133.76</ele><time>2014-01-22T12:02:39Z</time></trkpt><trkpt lat="51.7862135265" lon="-2.1913564671"><ele>135.20</ele><time>2014-01-22T12:02:53Z</time></trkpt><trkpt lat="51.7861953378" lon="-2.1914645936"><ele>135.68</ele><time>2014-01-22T12:03:04Z</time></trkpt><trkpt lat="51.7861696891" lon="-2.1916401945"><ele>136.64</ele><time>2014-01-22T12:03:14Z</time></trkpt><trkpt lat="51.7861396819" lon="-2.1918266080"><ele>137.13</ele><time>2014-01-22T12:03:23Z</time></trkpt><trkpt lat="51.7861313000" lon="-2.1918789111"><ele>137.13</ele><time>2014-01-22T12:03:27Z</time></trkpt><trkpt lat="51.7861289531" lon="-2.1919222455"><ele>137.13</ele><time>2014-01-22T12:03:30Z</time></trkpt><trkpt lat="51.7860651668" lon="-2.1921253391"><ele>138.57</ele><time>2014-01-22T12:03:43Z</time></trkpt><trkpt lat="51.7860493250" lon="-2.1921923943"><ele>139.05</ele><time>2014-01-22T12:03:49Z</time></trkpt><trkpt lat="51.7860354111" lon="-2.1922184620"><ele>139.05</ele><time>2014-01-22T12:03:51Z</time></trkpt><trkpt lat="51.7860132828" lon="-2.1923961584"><ele>140.01</ele><time>2014-01-22T12:04:01Z</time></trkpt><trkpt lat="51.7860634066" lon="-2.1925140917"><ele>141.45</ele><time>2014-01-22T12:04:12Z</time></trkpt><trkpt lat="51.7861086689" lon="-2.1927131619"><ele>142.41</ele><time>2014-01-22T12:04:26Z</time></trkpt><trkpt lat="51.7861081660" lon="-2.1927585080"><ele>142.41</ele><time>2014-01-22T12:04:29Z</time></trkpt><trkpt lat="51.7861105129" lon="-2.1927935444"><ele>142.41</ele><time>2014-01-22T12:04:31Z</time></trkpt><trkpt lat="51.7860374227" lon="-2.1930227056"><ele>142.89</ele><time>2014-01-22T12:04:45Z</time></trkpt><trkpt lat="51.7860187311" lon="-2.1930670459"><ele>142.89</ele><time>2014-01-22T12:04:48Z</time></trkpt><trkpt lat="51.7859858740" lon="-2.1931183431"><ele>143.37</ele><time>2014-01-22T12:04:52Z</time></trkpt><trkpt lat="51.7859595548" lon="-2.1931870747"><ele>142.89</ele><time>2014-01-22T12:04:58Z</time></trkpt><trkpt lat="51.7859001271" lon="-2.1932956204"><ele>142.89</ele><time>2014-01-22T12:05:05Z</time></trkpt><trkpt lat="51.7858447228" lon="-2.1934001427"><ele>142.41</ele><time>2014-01-22T12:05:13Z</time></trkpt><trkpt lat="51.7858215049" lon="-2.1934412979"><ele>141.93</ele><time>2014-01-22T12:05:16Z</time></trkpt><trkpt lat="51.7858090159" lon="-2.1934946906"><ele>142.41</ele><time>2014-01-22T12:05:19Z</time></trkpt><trkpt lat="51.7857777514" lon="-2.1935542859"><ele>141.93</ele><time>2014-01-22T12:05:23Z</time></trkpt><trkpt lat="51.7856932618" lon="-2.1936484147"><ele>141.93</ele><time>2014-01-22T12:05:31Z</time></trkpt><trkpt lat="51.7856613267" lon="-2.1937746461"><ele>141.45</ele><time>2014-01-22T12:05:41Z</time></trkpt><trkpt lat="51.7857586406" lon="-2.1939250175"><ele>142.89</ele><time>2014-01-22T12:05:53Z</time></trkpt><trkpt lat="51.7857681960" lon="-2.1939826012"><ele>142.89</ele><time>2014-01-22T12:05:56Z</time></trkpt><trkpt lat="51.7858159728" lon="-2.1942079905"><ele>143.37</ele><time>2014-01-22T12:06:08Z</time></trkpt><trkpt lat="51.7858474888" lon="-2.1943294443"><ele>143.85</ele><time>2014-01-22T12:06:14Z</time></trkpt><trkpt lat="51.7858760711" lon="-2.1944498084"><ele>144.82</ele><time>2014-01-22T12:06:21Z</time></trkpt><trkpt lat="51.7858958524" lon="-2.1945710946"><ele>145.78</ele><time>2014-01-22T12:06:28Z</time></trkpt><trkpt lat="51.7859185673" lon="-2.1946174465"><ele>144.82</ele><time>2014-01-22T12:06:32Z</time></trkpt><trkpt lat="51.7859370075" lon="-2.1946748625"><ele>145.78</ele><time>2014-01-22T12:06:36Z</time></trkpt><trkpt lat="51.7859018035" lon="-2.1947917063"><ele>145.30</ele><time>2014-01-22T12:06:43Z</time></trkpt><trkpt lat="51.7859033961" lon="-2.1948184446"><ele>145.78</ele><time>2014-01-22T12:06:45Z</time></trkpt><trkpt lat="51.7859778274" lon="-2.1950209513"><ele>145.78</ele><time>2014-01-22T12:06:59Z</time></trkpt><trkpt lat="51.7859734688" lon="-2.1951261442"><ele>145.78</ele><time>2014-01-22T12:07:08Z</time></trkpt><trkpt lat="51.7859097663" lon="-2.1952558961"><ele>144.82</ele><time>2014-01-22T12:07:15Z</time></trkpt><trkpt lat="51.7859064136" lon="-2.1953145694"><ele>145.30</ele><time>2014-01-22T12:07:18Z</time></trkpt><trkpt lat="51.7858684435" lon="-2.1953787748"><ele>144.82</ele><time>2014-01-22T12:07:22Z</time></trkpt><trkpt lat="51.7858427949" lon="-2.1954119671"><ele>144.82</ele><time>2014-01-22T12:07:25Z</time></trkpt><trkpt lat="51.7857809365" lon="-2.1954853926"><ele>143.85</ele><time>2014-01-22T12:07:33Z</time></trkpt><trkpt lat="51.7857514322" lon="-2.1955445688"><ele>143.85</ele><time>2014-01-22T12:07:38Z</time></trkpt><trkpt lat="51.7857662681" lon="-2.1955948602"><ele>143.85</ele><time>2014-01-22T12:07:41Z</time></trkpt><trkpt lat="51.7858653422" lon="-2.1957861353"><ele>145.30</ele><time>2014-01-22T12:07:55Z</time></trkpt><trkpt lat="51.7859368399" lon="-2.1959429607"><ele>145.78</ele><time>2014-01-22T12:08:06Z</time></trkpt><trkpt lat="51.7859523464" lon="-2.1960160509"><ele>146.26</ele><time>2014-01-22T12:08:10Z</time></trkpt><trkpt lat="51.7859575432" lon="-2.1961627342"><ele>146.74</ele><time>2014-01-22T12:08:18Z</time></trkpt><trkpt lat="51.7859907355" lon="-2.1963037178"><ele>147.70</ele><time>2014-01-22T12:08:27Z</time></trkpt><trkpt lat="51.7860297114" lon="-2.1963894647"><ele>147.70</ele><time>2014-01-22T12:08:44Z</time></trkpt><trkpt lat="51.7860326450" lon="-2.1963978466"><ele>147.70</ele><time>2014-01-22T12:08:55Z</time></trkpt><trkpt lat="51.7860374227" lon="-2.1963861957"><ele>148.18</ele><time>2014-01-22T12:09:13Z</time></trkpt></trkseg></trk></gpx>